<?xml version="1.0" encoding="UTF-8" standalone="no" ?>
<gpx xmlns="http://www.topografix.com/GPX/1/1" xmlns:xsi="http://www.w3.org/2001/XMLSchema-instance" xsi:schemaLocation="http://www.topografix.com/GPX/1/1 http://www.topografix.com/GPX/1/1/gpx.xsd" version="1.1" creator="VisuGPX - https://www.visugpx.com">
  <metadata>
    <name>Gorges de Baudinard - Grottes</name>
    <desc><![CDATA[Départ au pont de Sainte-Croix coté rive droite.
Randonnée qui permet de découvrir les gorges de Baudinard et surtout les grottes en aval du barrage sur la rive droite 6 à 7 grottes à visiter. 
Attention si vous êtes sujet au vertige, quelques passages délicats.
Nous avons mis 1h20 pour visiter les grottes. Ne pas déranger les chauves souris.
Sur la fin du parcours il faut descendre une échelle assez raide.
Possible de ne faire qu'un aller retour pour voir les grottes.]]></desc>
  </metadata>
  <wpt lat="43.73843" lon="6.13519">
    <ele>552.9</ele>
    <name><![CDATA[Echelle]]></name>
    <type><![CDATA[__]]></type>
  </wpt>
  <wpt lat="43.73879" lon="6.13079">
    <ele>512.4</ele>
    <name><![CDATA[Gauche Trace jaune]]></name>
  </wpt>
  <wpt lat="43.73741" lon="6.12868">
    <ele>466.1</ele>
    <name><![CDATA[Gr1]]></name>
    <type><![CDATA[patrimoine_geo]]></type>
  </wpt>
  <wpt lat="43.73759" lon="6.12822">
    <ele>468.5</ele>
    <name><![CDATA[Gr2]]></name>
    <type><![CDATA[patrimoine_geo]]></type>
  </wpt>
  <wpt lat="43.73775" lon="6.12764">
    <ele>459.3</ele>
    <name><![CDATA[Gr3]]></name>
    <type><![CDATA[patrimoine_geo]]></type>
  </wpt>
  <wpt lat="43.73805" lon="6.12677">
    <ele>444.7</ele>
    <name><![CDATA[Gr4]]></name>
    <type><![CDATA[patrimoine_geo]]></type>
  </wpt>
  <wpt lat="43.73824" lon="6.12598">
    <ele>441.6</ele>
    <name><![CDATA[Gr5]]></name>
    <type><![CDATA[patrimoine_geo]]></type>
  </wpt>
  <wpt lat="43.73843" lon="6.12522">
    <ele>437</ele>
    <name><![CDATA[Gr6]]></name>
    <type><![CDATA[patrimoine_geo]]></type>
  </wpt>
  <trk>
    <name><![CDATA[Gorges de Baudinard - Grottes]]></name>
    <extensions>
      <line xmlns="http://www.topografix.com/GPX/gpx_style/0/2">
        <color>0000FF</color>
        <width>4</width>
      </line>
    </extensions>
    <trkseg>
      <trkpt lat="43.73892" lon="6.13963">
        <ele>504.3</ele>
        <time>2022-05-12T12:15:00.000Z</time>
      </trkpt>
      <trkpt lat="43.73897" lon="6.13973">
        <ele>504.8</ele>
        <time>2022-05-12T12:15:19.310Z</time>
      </trkpt>
      <trkpt lat="43.73902" lon="6.13985">
        <ele>503.9</ele>
        <time>2022-05-12T12:15:21.698Z</time>
      </trkpt>
      <trkpt lat="43.73908" lon="6.13996">
        <ele>503.7</ele>
        <time>2022-05-12T12:15:25.063Z</time>
      </trkpt>
      <trkpt lat="43.73911" lon="6.14001">
        <ele>503.7</ele>
        <time>2022-05-12T12:15:30.698Z</time>
      </trkpt>
      <trkpt lat="43.73917" lon="6.13998">
        <ele>506.7</ele>
        <time>2022-05-12T12:16:00.227Z</time>
      </trkpt>
      <trkpt lat="43.73916" lon="6.13977">
        <ele>510.6</ele>
        <time>2022-05-12T12:17:10.607Z</time>
      </trkpt>
      <trkpt lat="43.73913" lon="6.13966">
        <ele>512.1</ele>
        <time>2022-05-12T12:17:49.927Z</time>
      </trkpt>
      <trkpt lat="43.73909" lon="6.13953">
        <ele>512.8</ele>
        <time>2022-05-12T12:18:14.315Z</time>
      </trkpt>
      <trkpt lat="43.73903" lon="6.13942">
        <ele>512.6</ele>
        <time>2022-05-12T12:18:17.680Z</time>
      </trkpt>
      <trkpt lat="43.739" lon="6.1393">
        <ele>513.6</ele>
        <time>2022-05-12T12:18:49.062Z</time>
      </trkpt>
      <trkpt lat="43.73896" lon="6.13919">
        <ele>513.8</ele>
        <time>2022-05-12T12:19:02.507Z</time>
      </trkpt>
      <trkpt lat="43.73892" lon="6.13905">
        <ele>515.5</ele>
        <time>2022-05-12T12:19:52.854Z</time>
      </trkpt>
      <trkpt lat="43.7389" lon="6.13891">
        <ele>517.9</ele>
        <time>2022-05-12T12:20:40.580Z</time>
      </trkpt>
      <trkpt lat="43.73884" lon="6.13878">
        <ele>518</ele>
        <time>2022-05-12T12:20:55.152Z</time>
      </trkpt>
      <trkpt lat="43.73879" lon="6.13869">
        <ele>517.6</ele>
        <time>2022-05-12T12:20:57.227Z</time>
      </trkpt>
      <trkpt lat="43.73871" lon="6.1386">
        <ele>516.2</ele>
        <time>2022-05-12T12:20:59.686Z</time>
      </trkpt>
      <trkpt lat="43.73866" lon="6.1385">
        <ele>515.9</ele>
        <time>2022-05-12T12:21:02.235Z</time>
      </trkpt>
      <trkpt lat="43.73862" lon="6.13838">
        <ele>516.5</ele>
        <time>2022-05-12T12:21:24.111Z</time>
      </trkpt>
      <trkpt lat="43.73855" lon="6.13827">
        <ele>515.2</ele>
        <time>2022-05-12T12:21:26.637Z</time>
      </trkpt>
      <trkpt lat="43.73851" lon="6.1382">
        <ele>513.9</ele>
        <time>2022-05-12T12:21:28.176Z</time>
      </trkpt>
      <trkpt lat="43.73848" lon="6.13811">
        <ele>513.5</ele>
        <time>2022-05-12T12:21:29.881Z</time>
      </trkpt>
      <trkpt lat="43.73846" lon="6.13798">
        <ele>513.7</ele>
        <time>2022-05-12T12:21:44.122Z</time>
      </trkpt>
      <trkpt lat="43.73851" lon="6.13787">
        <ele>516.5</ele>
        <time>2022-05-12T12:22:27.583Z</time>
      </trkpt>
      <trkpt lat="43.7386" lon="6.13783">
        <ele>520.4</ele>
        <time>2022-05-12T12:23:11.336Z</time>
      </trkpt>
      <trkpt lat="43.73861" lon="6.13768">
        <ele>522</ele>
        <time>2022-05-12T12:24:01.712Z</time>
      </trkpt>
      <trkpt lat="43.73857" lon="6.13757">
        <ele>521.8</ele>
        <time>2022-05-12T12:24:04.637Z</time>
      </trkpt>
      <trkpt lat="43.73847" lon="6.13754">
        <ele>519.2</ele>
        <time>2022-05-12T12:24:07.078Z</time>
      </trkpt>
      <trkpt lat="43.73839" lon="6.13749">
        <ele>517.7</ele>
        <time>2022-05-12T12:24:09.172Z</time>
      </trkpt>
      <trkpt lat="43.73832" lon="6.13738">
        <ele>517.8</ele>
        <time>2022-05-12T12:24:23.085Z</time>
      </trkpt>
      <trkpt lat="43.73827" lon="6.13725">
        <ele>518.5</ele>
        <time>2022-05-12T12:24:47.988Z</time>
      </trkpt>
      <trkpt lat="43.73821" lon="6.13713">
        <ele>517.9</ele>
        <time>2022-05-12T12:24:50.476Z</time>
      </trkpt>
      <trkpt lat="43.7382" lon="6.13699">
        <ele>518.8</ele>
        <time>2022-05-12T12:25:19.011Z</time>
      </trkpt>
      <trkpt lat="43.73824" lon="6.13686">
        <ele>521.8</ele>
        <time>2022-05-12T12:26:06.264Z</time>
      </trkpt>
      <trkpt lat="43.73825" lon="6.13676">
        <ele>523.2</ele>
        <time>2022-05-12T12:26:40.026Z</time>
      </trkpt>
      <trkpt lat="43.73829" lon="6.13664">
        <ele>526</ele>
        <time>2022-05-12T12:27:24.222Z</time>
      </trkpt>
      <trkpt lat="43.73837" lon="6.1366">
        <ele>529.4</ele>
        <time>2022-05-12T12:28:03.593Z</time>
      </trkpt>
      <trkpt lat="43.73846" lon="6.13655">
        <ele>533</ele>
        <time>2022-05-12T12:28:48.482Z</time>
      </trkpt>
      <trkpt lat="43.73853" lon="6.13646">
        <ele>536.7</ele>
        <time>2022-05-12T12:29:32.706Z</time>
      </trkpt>
      <trkpt lat="43.73858" lon="6.13645">
        <ele>538.1</ele>
        <time>2022-05-12T12:29:56.089Z</time>
      </trkpt>
      <trkpt lat="43.7386" lon="6.13636">
        <ele>540</ele>
        <time>2022-05-12T12:30:27.579Z</time>
      </trkpt>
      <trkpt lat="43.73859" lon="6.13624">
        <ele>542.1</ele>
        <time>2022-05-12T12:31:07.976Z</time>
      </trkpt>
      <trkpt lat="43.73866" lon="6.13616">
        <ele>545.6</ele>
        <time>2022-05-12T12:31:49.994Z</time>
      </trkpt>
      <trkpt lat="43.7387" lon="6.13605">
        <ele>548.5</ele>
        <time>2022-05-12T12:32:31.177Z</time>
      </trkpt>
      <trkpt lat="43.73869" lon="6.13591">
        <ele>550.9</ele>
        <time>2022-05-12T12:33:18.225Z</time>
      </trkpt>
      <trkpt lat="43.73862" lon="6.13579">
        <ele>550.8</ele>
        <time>2022-05-12T12:33:22.553Z</time>
      </trkpt>
      <trkpt lat="43.73855" lon="6.13566">
        <ele>550.3</ele>
        <time>2022-05-12T12:33:25.682Z</time>
      </trkpt>
      <trkpt lat="43.73852" lon="6.13564">
        <ele>549.4</ele>
        <time>2022-05-12T12:33:26.477Z</time>
      </trkpt>
      <trkpt lat="43.73849" lon="6.13552">
        <ele>550.2</ele>
        <time>2022-05-12T12:33:51.932Z</time>
      </trkpt>
      <trkpt lat="43.73844" lon="6.13542">
        <ele>550.2</ele>
        <time>2022-05-12T12:34:02.476Z</time>
      </trkpt>
      <trkpt lat="43.73841" lon="6.13528">
        <ele>551.1</ele>
        <time>2022-05-12T12:34:31.276Z</time>
      </trkpt>
      <trkpt lat="43.7384" lon="6.13517">
        <ele>551.9</ele>
        <time>2022-05-12T12:34:56.243Z</time>
      </trkpt>
      <trkpt lat="43.73836" lon="6.13506">
        <ele>551.4</ele>
        <time>2022-05-12T12:34:58.355Z</time>
      </trkpt>
      <trkpt lat="43.73833" lon="6.13493">
        <ele>551</ele>
        <time>2022-05-12T12:35:01.042Z</time>
      </trkpt>
      <trkpt lat="43.7383" lon="6.13481">
        <ele>550.6</ele>
        <time>2022-05-12T12:35:03.472Z</time>
      </trkpt>
      <trkpt lat="43.73828" lon="6.13467">
        <ele>550.2</ele>
        <time>2022-05-12T12:35:06.329Z</time>
      </trkpt>
      <trkpt lat="43.73827" lon="6.13455">
        <ele>550.2</ele>
        <time>2022-05-12T12:35:16.803Z</time>
      </trkpt>
      <trkpt lat="43.73824" lon="6.13443">
        <ele>549.1</ele>
        <time>2022-05-12T12:35:18.991Z</time>
      </trkpt>
      <trkpt lat="43.73826" lon="6.13432">
        <ele>549.6</ele>
        <time>2022-05-12T12:35:37.525Z</time>
      </trkpt>
      <trkpt lat="43.73825" lon="6.13416">
        <ele>548.4</ele>
        <time>2022-05-12T12:35:40.293Z</time>
      </trkpt>
      <trkpt lat="43.73824" lon="6.13402">
        <ele>546.7</ele>
        <time>2022-05-12T12:35:42.719Z</time>
      </trkpt>
      <trkpt lat="43.73825" lon="6.13388">
        <ele>545.9</ele>
        <time>2022-05-12T12:35:45.144Z</time>
      </trkpt>
      <trkpt lat="43.73827" lon="6.13375">
        <ele>545.2</ele>
        <time>2022-05-12T12:35:47.435Z</time>
      </trkpt>
      <trkpt lat="43.73827" lon="6.13361">
        <ele>543.3</ele>
        <time>2022-05-12T12:35:49.848Z</time>
      </trkpt>
      <trkpt lat="43.73828" lon="6.13348">
        <ele>542.6</ele>
        <time>2022-05-12T12:35:52.102Z</time>
      </trkpt>
      <trkpt lat="43.73826" lon="6.1334">
        <ele>541</ele>
        <time>2022-05-12T12:35:53.561Z</time>
      </trkpt>
      <trkpt lat="43.73823" lon="6.13331">
        <ele>538.2</ele>
        <time>2022-05-12T12:35:55.270Z</time>
      </trkpt>
      <trkpt lat="43.73824" lon="6.13318">
        <ele>538.2</ele>
        <time>2022-05-12T12:36:06.605Z</time>
      </trkpt>
      <trkpt lat="43.73823" lon="6.13302">
        <ele>537.2</ele>
        <time>2022-05-12T12:36:09.374Z</time>
      </trkpt>
      <trkpt lat="43.73828" lon="6.13291">
        <ele>539.2</ele>
        <time>2022-05-12T12:36:52.835Z</time>
      </trkpt>
      <trkpt lat="43.73822" lon="6.1328">
        <ele>535.7</ele>
        <time>2022-05-12T12:36:55.211Z</time>
      </trkpt>
      <trkpt lat="43.73819" lon="6.13278">
        <ele>534.2</ele>
        <time>2022-05-12T12:36:56.005Z</time>
      </trkpt>
      <trkpt lat="43.73822" lon="6.1328">
        <ele>535.5</ele>
        <time>2022-05-12T12:37:11.418Z</time>
      </trkpt>
      <trkpt lat="43.73821" lon="6.13278">
        <ele>535.4</ele>
        <time>2022-05-12T12:37:11.833Z</time>
      </trkpt>
      <trkpt lat="43.73823" lon="6.13262">
        <ele>535.5</ele>
        <time>2022-05-12T12:37:27.104Z</time>
      </trkpt>
      <trkpt lat="43.73823" lon="6.13246">
        <ele>534.8</ele>
        <time>2022-05-12T12:37:29.753Z</time>
      </trkpt>
      <trkpt lat="43.73822" lon="6.13231">
        <ele>532.7</ele>
        <time>2022-05-12T12:37:32.350Z</time>
      </trkpt>
      <trkpt lat="43.73823" lon="6.13217">
        <ele>531.1</ele>
        <time>2022-05-12T12:37:34.775Z</time>
      </trkpt>
      <trkpt lat="43.73824" lon="6.13203">
        <ele>528.8</ele>
        <time>2022-05-12T12:37:37.201Z</time>
      </trkpt>
      <trkpt lat="43.73826" lon="6.1319">
        <ele>527</ele>
        <time>2022-05-12T12:37:39.492Z</time>
      </trkpt>
      <trkpt lat="43.73833" lon="6.13178">
        <ele>526.2</ele>
        <time>2022-05-12T12:37:42.151Z</time>
      </trkpt>
      <trkpt lat="43.73839" lon="6.13167">
        <ele>525.1</ele>
        <time>2022-05-12T12:37:44.527Z</time>
      </trkpt>
      <trkpt lat="43.73846" lon="6.13156">
        <ele>523.9</ele>
        <time>2022-05-12T12:37:47.053Z</time>
      </trkpt>
      <trkpt lat="43.73852" lon="6.13145">
        <ele>522.4</ele>
        <time>2022-05-12T12:37:49.429Z</time>
      </trkpt>
      <trkpt lat="43.73859" lon="6.13133">
        <ele>520.6</ele>
        <time>2022-05-12T12:37:52.088Z</time>
      </trkpt>
      <trkpt lat="43.73862" lon="6.13116">
        <ele>516.7</ele>
        <time>2022-05-12T12:37:55.105Z</time>
      </trkpt>
      <trkpt lat="43.73866" lon="6.13103">
        <ele>514.8</ele>
        <time>2022-05-12T12:37:57.541Z</time>
      </trkpt>
      <trkpt lat="43.73871" lon="6.1309">
        <ele>512.8</ele>
        <time>2022-05-12T12:38:00.079Z</time>
      </trkpt>
      <trkpt lat="43.73877" lon="6.13077">
        <ele>512</ele>
        <time>2022-05-12T12:38:02.739Z</time>
      </trkpt>
      <trkpt lat="43.73875" lon="6.1308">
        <ele>511.9</ele>
        <time>2022-05-12T12:38:03.596Z</time>
      </trkpt>
      <trkpt lat="43.73866" lon="6.13078">
        <ele>510.8</ele>
        <time>2022-05-12T12:38:05.771Z</time>
      </trkpt>
      <trkpt lat="43.73857" lon="6.1308">
        <ele>509.6</ele>
        <time>2022-05-12T12:38:07.946Z</time>
      </trkpt>
      <trkpt lat="43.73847" lon="6.1308">
        <ele>508.2</ele>
        <time>2022-05-12T12:38:10.332Z</time>
      </trkpt>
      <trkpt lat="43.73836" lon="6.13085">
        <ele>506.6</ele>
        <time>2022-05-12T12:38:13.094Z</time>
      </trkpt>
      <trkpt lat="43.73825" lon="6.13088">
        <ele>505.2</ele>
        <time>2022-05-12T12:38:15.769Z</time>
      </trkpt>
      <trkpt lat="43.73814" lon="6.13095">
        <ele>504.2</ele>
        <time>2022-05-12T12:38:18.658Z</time>
      </trkpt>
      <trkpt lat="43.73801" lon="6.13097">
        <ele>502.3</ele>
        <time>2022-05-12T12:38:21.779Z</time>
      </trkpt>
      <trkpt lat="43.73789" lon="6.13096">
        <ele>500.5</ele>
        <time>2022-05-12T12:38:24.647Z</time>
      </trkpt>
      <trkpt lat="43.73778" lon="6.131">
        <ele>499</ele>
        <time>2022-05-12T12:38:27.361Z</time>
      </trkpt>
      <trkpt lat="43.73768" lon="6.13101">
        <ele>496.4</ele>
        <time>2022-05-12T12:38:29.753Z</time>
      </trkpt>
      <trkpt lat="43.73757" lon="6.13097">
        <ele>493.9</ele>
        <time>2022-05-12T12:38:32.467Z</time>
      </trkpt>
      <trkpt lat="43.73749" lon="6.13094">
        <ele>491.9</ele>
        <time>2022-05-12T12:38:34.444Z</time>
      </trkpt>
      <trkpt lat="43.73739" lon="6.13089">
        <ele>488.5</ele>
        <time>2022-05-12T12:38:36.981Z</time>
      </trkpt>
      <trkpt lat="43.73731" lon="6.13081">
        <ele>487.4</ele>
        <time>2022-05-12T12:38:39.336Z</time>
      </trkpt>
      <trkpt lat="43.73727" lon="6.13069">
        <ele>489</ele>
        <time>2022-05-12T12:39:23.533Z</time>
      </trkpt>
      <trkpt lat="43.73723" lon="6.13056">
        <ele>491.1</ele>
        <time>2022-05-12T12:40:10.787Z</time>
      </trkpt>
      <trkpt lat="43.73721" lon="6.13051">
        <ele>489.3</ele>
        <time>2022-05-12T12:40:11.772Z</time>
      </trkpt>
      <trkpt lat="43.73722" lon="6.13047">
        <ele>491.1</ele>
        <time>2022-05-12T12:40:25.927Z</time>
      </trkpt>
      <trkpt lat="43.73724" lon="6.13044">
        <ele>491.6</ele>
        <time>2022-05-12T12:40:39.579Z</time>
      </trkpt>
      <trkpt lat="43.73723" lon="6.13034">
        <ele>491.2</ele>
        <time>2022-05-12T12:40:41.330Z</time>
      </trkpt>
      <trkpt lat="43.7372" lon="6.13029">
        <ele>488.4</ele>
        <time>2022-05-12T12:40:42.450Z</time>
      </trkpt>
      <trkpt lat="43.73722" lon="6.13023">
        <ele>490.2</ele>
        <time>2022-05-12T12:41:04.549Z</time>
      </trkpt>
      <trkpt lat="43.73721" lon="6.13015">
        <ele>488.8</ele>
        <time>2022-05-12T12:41:05.948Z</time>
      </trkpt>
      <trkpt lat="43.73714" lon="6.13001">
        <ele>480.4</ele>
        <time>2022-05-12T12:41:08.883Z</time>
      </trkpt>
      <trkpt lat="43.73711" lon="6.12986">
        <ele>474.5</ele>
        <time>2022-05-12T12:41:11.566Z</time>
      </trkpt>
      <trkpt lat="43.73709" lon="6.12976">
        <ele>469</ele>
        <time>2022-05-12T12:41:13.355Z</time>
      </trkpt>
      <trkpt lat="43.73708" lon="6.12964">
        <ele>463.8</ele>
        <time>2022-05-12T12:41:15.437Z</time>
      </trkpt>
      <trkpt lat="43.73712" lon="6.12951">
        <ele>465.6</ele>
        <time>2022-05-12T12:42:02.692Z</time>
      </trkpt>
      <trkpt lat="43.73715" lon="6.12939">
        <ele>466.1</ele>
        <time>2022-05-12T12:42:22.528Z</time>
      </trkpt>
      <trkpt lat="43.73717" lon="6.12923">
        <ele>461.8</ele>
        <time>2022-05-12T12:42:25.327Z</time>
      </trkpt>
      <trkpt lat="43.73714" lon="6.12913">
        <ele>451.6</ele>
        <time>2022-05-12T12:42:27.193Z</time>
      </trkpt>
      <trkpt lat="43.7372" lon="6.12906">
        <ele>459.5</ele>
        <time>2022-05-12T12:43:03.516Z</time>
      </trkpt>
      <trkpt lat="43.73727" lon="6.12897">
        <ele>463</ele>
        <time>2022-05-12T12:43:47.740Z</time>
      </trkpt>
      <trkpt lat="43.73732" lon="6.12885">
        <ele>462.3</ele>
        <time>2022-05-12T12:43:50.128Z</time>
      </trkpt>
      <trkpt lat="43.73736" lon="6.12874">
        <ele>461.8</ele>
        <time>2022-05-12T12:43:52.240Z</time>
      </trkpt>
      <trkpt lat="43.73743" lon="6.12864">
        <ele>466.3</ele>
        <time>2022-05-12T12:44:38.805Z</time>
      </trkpt>
      <trkpt lat="43.73745" lon="6.12847">
        <ele>462.4</ele>
        <time>2022-05-12T12:44:41.774Z</time>
      </trkpt>
      <trkpt lat="43.73748" lon="6.12834">
        <ele>461.5</ele>
        <time>2022-05-12T12:44:44.126Z</time>
      </trkpt>
      <trkpt lat="43.73751" lon="6.12831">
        <ele>463.6</ele>
        <time>2022-05-12T12:45:01.258Z</time>
      </trkpt>
      <trkpt lat="43.73756" lon="6.12832">
        <ele>470</ele>
        <time>2022-05-12T12:45:24.641Z</time>
      </trkpt>
      <trkpt lat="43.73764" lon="6.12831">
        <ele>477.9</ele>
        <time>2022-05-12T12:46:01.822Z</time>
      </trkpt>
      <trkpt lat="43.73759" lon="6.12817">
        <ele>466.7</ele>
        <time>2022-05-12T12:46:04.514Z</time>
      </trkpt>
      <trkpt lat="43.73757" lon="6.12817">
        <ele>464.4</ele>
        <time>2022-05-12T12:46:04.991Z</time>
      </trkpt>
      <trkpt lat="43.73756" lon="6.1281">
        <ele>460.4</ele>
        <time>2022-05-12T12:46:06.221Z</time>
      </trkpt>
      <trkpt lat="43.73754" lon="6.12817">
        <ele>461</ele>
        <time>2022-05-12T12:46:25.091Z</time>
      </trkpt>
      <trkpt lat="43.73763" lon="6.12836">
        <ele>478</ele>
        <time>2022-05-12T12:47:41.071Z</time>
      </trkpt>
      <trkpt lat="43.73761" lon="6.12839">
        <ele>477.2</ele>
        <time>2022-05-12T12:47:41.775Z</time>
      </trkpt>
      <trkpt lat="43.73763" lon="6.12845">
        <ele>481.8</ele>
        <time>2022-05-12T12:48:03.873Z</time>
      </trkpt>
      <trkpt lat="43.73765" lon="6.12853">
        <ele>486.4</ele>
        <time>2022-05-12T12:48:32.183Z</time>
      </trkpt>
      <trkpt lat="43.73764" lon="6.12852">
        <ele>485.5</ele>
        <time>2022-05-12T12:48:32.478Z</time>
      </trkpt>
      <trkpt lat="43.73761" lon="6.12854">
        <ele>482.7</ele>
        <time>2022-05-12T12:48:33.272Z</time>
      </trkpt>
      <trkpt lat="43.73765" lon="6.12853">
        <ele>486.3</ele>
        <time>2022-05-12T12:48:52.087Z</time>
      </trkpt>
      <trkpt lat="43.73762" lon="6.12857">
        <ele>484.6</ele>
        <time>2022-05-12T12:48:53.080Z</time>
      </trkpt>
      <trkpt lat="43.73764" lon="6.12837">
        <ele>479.8</ele>
        <time>2022-05-12T12:48:56.561Z</time>
      </trkpt>
      <trkpt lat="43.73753" lon="6.12814">
        <ele>459.2</ele>
        <time>2022-05-12T12:49:01.316Z</time>
      </trkpt>
      <trkpt lat="43.73748" lon="6.12807">
        <ele>451.2</ele>
        <time>2022-05-12T12:49:03.013Z</time>
      </trkpt>
      <trkpt lat="43.7375" lon="6.12791">
        <ele>445.3</ele>
        <time>2022-05-12T12:49:05.812Z</time>
      </trkpt>
      <trkpt lat="43.73768" lon="6.12765">
        <ele>452.1</ele>
        <time>2022-05-12T12:51:06.237Z</time>
      </trkpt>
      <trkpt lat="43.73785" lon="6.12748">
        <ele>458.7</ele>
        <time>2022-05-12T12:52:43.314Z</time>
      </trkpt>
      <trkpt lat="43.73788" lon="6.12733">
        <ele>453</ele>
        <time>2022-05-12T12:52:45.997Z</time>
      </trkpt>
      <trkpt lat="43.73789" lon="6.12728">
        <ele>450.2</ele>
        <time>2022-05-12T12:52:46.892Z</time>
      </trkpt>
      <trkpt lat="43.73793" lon="6.12723">
        <ele>451.5</ele>
        <time>2022-05-12T12:53:11.839Z</time>
      </trkpt>
      <trkpt lat="43.73796" lon="6.12724">
        <ele>455.6</ele>
        <time>2022-05-12T12:53:26.123Z</time>
      </trkpt>
      <trkpt lat="43.73799" lon="6.12725">
        <ele>459</ele>
        <time>2022-05-12T12:53:40.406Z</time>
      </trkpt>
      <trkpt lat="43.73793" lon="6.12721">
        <ele>450.9</ele>
        <time>2022-05-12T12:53:41.995Z</time>
      </trkpt>
      <trkpt lat="43.73794" lon="6.12703">
        <ele>443.1</ele>
        <time>2022-05-12T12:53:45.107Z</time>
      </trkpt>
      <trkpt lat="43.73795" lon="6.12695">
        <ele>439.6</ele>
        <time>2022-05-12T12:53:46.506Z</time>
      </trkpt>
      <trkpt lat="43.73801" lon="6.12681">
        <ele>442.8</ele>
        <time>2022-05-12T12:54:40.943Z</time>
      </trkpt>
      <trkpt lat="43.73814" lon="6.12674">
        <ele>455.3</ele>
        <time>2022-05-12T12:55:45.509Z</time>
      </trkpt>
      <trkpt lat="43.73821" lon="6.1267">
        <ele>463.2</ele>
        <time>2022-05-12T12:56:20.563Z</time>
      </trkpt>
      <trkpt lat="43.73816" lon="6.12668">
        <ele>456.2</ele>
        <time>2022-05-12T12:56:21.805Z</time>
      </trkpt>
      <trkpt lat="43.73826" lon="6.12666">
        <ele>466.9</ele>
        <time>2022-05-12T12:57:08.572Z</time>
      </trkpt>
      <trkpt lat="43.73804" lon="6.12649">
        <ele>434.9</ele>
        <time>2022-05-12T12:57:14.584Z</time>
      </trkpt>
      <trkpt lat="43.73805" lon="6.12648">
        <ele>435</ele>
        <time>2022-05-12T12:57:17.834Z</time>
      </trkpt>
      <trkpt lat="43.73811" lon="6.12623">
        <ele>434</ele>
        <time>2022-05-12T12:57:22.493Z</time>
      </trkpt>
      <trkpt lat="43.73832" lon="6.12579">
        <ele>443.2</ele>
        <time>2022-05-12T13:00:18.847Z</time>
      </trkpt>
      <trkpt lat="43.73842" lon="6.12515">
        <ele>433.7</ele>
        <time>2022-05-12T13:00:30.135Z</time>
      </trkpt>
      <trkpt lat="43.73824" lon="6.12589">
        <ele>437.9</ele>
        <time>2022-05-12T13:02:51.090Z</time>
      </trkpt>
      <trkpt lat="43.73812" lon="6.12654">
        <ele>445.7</ele>
        <time>2022-05-12T13:06:35.450Z</time>
      </trkpt>
      <trkpt lat="43.73797" lon="6.12675">
        <ele>437.4</ele>
        <time>2022-05-12T13:06:40.541Z</time>
      </trkpt>
      <trkpt lat="43.73801" lon="6.1269">
        <ele>445.1</ele>
        <time>2022-05-12T13:07:34.012Z</time>
      </trkpt>
      <trkpt lat="43.73802" lon="6.12699">
        <ele>450.4</ele>
        <time>2022-05-12T13:08:04.465Z</time>
      </trkpt>
      <trkpt lat="43.7379" lon="6.12721">
        <ele>446.9</ele>
        <time>2022-05-12T13:08:09.217Z</time>
      </trkpt>
      <trkpt lat="43.73788" lon="6.1272">
        <ele>444.2</ele>
        <time>2022-05-12T13:08:09.724Z</time>
      </trkpt>
      <trkpt lat="43.73788" lon="6.1273">
        <ele>451</ele>
        <time>2022-05-12T13:08:43.167Z</time>
      </trkpt>
      <trkpt lat="43.7379" lon="6.12741">
        <ele>460.1</ele>
        <time>2022-05-12T13:09:21.101Z</time>
      </trkpt>
      <trkpt lat="43.73794" lon="6.12746">
        <ele>468.3</ele>
        <time>2022-05-12T13:09:46.048Z</time>
      </trkpt>
      <trkpt lat="43.7378" lon="6.12755">
        <ele>459.1</ele>
        <time>2022-05-12T13:09:49.732Z</time>
      </trkpt>
      <trkpt lat="43.7377" lon="6.12766">
        <ele>454.9</ele>
        <time>2022-05-12T13:09:52.779Z</time>
      </trkpt>
      <trkpt lat="43.73766" lon="6.12776">
        <ele>457.7</ele>
        <time>2022-05-12T13:10:31.005Z</time>
      </trkpt>
      <trkpt lat="43.73754" lon="6.12781">
        <ele>444.9</ele>
        <time>2022-05-12T13:10:33.995Z</time>
      </trkpt>
      <trkpt lat="43.73756" lon="6.1279">
        <ele>451.7</ele>
        <time>2022-05-12T13:11:05.485Z</time>
      </trkpt>
      <trkpt lat="43.73756" lon="6.12815">
        <ele>462.6</ele>
        <time>2022-05-12T13:12:29.092Z</time>
      </trkpt>
      <trkpt lat="43.73753" lon="6.12827">
        <ele>464.9</ele>
        <time>2022-05-12T13:13:11.558Z</time>
      </trkpt>
      <trkpt lat="43.7375" lon="6.12836">
        <ele>464.8</ele>
        <time>2022-05-12T13:13:14.165Z</time>
      </trkpt>
      <trkpt lat="43.73749" lon="6.12854">
        <ele>469.8</ele>
        <time>2022-05-12T13:14:14.540Z</time>
      </trkpt>
      <trkpt lat="43.73744" lon="6.12867">
        <ele>469.1</ele>
        <time>2022-05-12T13:14:16.881Z</time>
      </trkpt>
      <trkpt lat="43.73746" lon="6.12883">
        <ele>475.8</ele>
        <time>2022-05-12T13:15:11.185Z</time>
      </trkpt>
      <trkpt lat="43.73749" lon="6.12881">
        <ele>478.1</ele>
        <time>2022-05-12T13:15:26.598Z</time>
      </trkpt>
      <trkpt lat="43.73754" lon="6.12879">
        <ele>482.8</ele>
        <time>2022-05-12T13:15:50.688Z</time>
      </trkpt>
      <trkpt lat="43.73739" lon="6.12872">
        <ele>464.3</ele>
        <time>2022-05-12T13:15:54.465Z</time>
      </trkpt>
      <trkpt lat="43.73739" lon="6.12877">
        <ele>466.7</ele>
        <time>2022-05-12T13:16:11.187Z</time>
      </trkpt>
      <trkpt lat="43.73732" lon="6.12873">
        <ele>458</ele>
        <time>2022-05-12T13:16:12.994Z</time>
      </trkpt>
      <trkpt lat="43.73734" lon="6.12871">
        <ele>459.3</ele>
        <time>2022-05-12T13:16:24.415Z</time>
      </trkpt>
      <trkpt lat="43.73732" lon="6.12877">
        <ele>458.9</ele>
        <time>2022-05-12T13:16:25.554Z</time>
      </trkpt>
      <trkpt lat="43.73734" lon="6.12889">
        <ele>466.4</ele>
        <time>2022-05-12T13:17:06.739Z</time>
      </trkpt>
      <trkpt lat="43.73734" lon="6.12907">
        <ele>473</ele>
        <time>2022-05-12T13:18:06.937Z</time>
      </trkpt>
      <trkpt lat="43.73725" lon="6.12911">
        <ele>468.1</ele>
        <time>2022-05-12T13:18:09.192Z</time>
      </trkpt>
      <trkpt lat="43.73717" lon="6.12924">
        <ele>463</ele>
        <time>2022-05-12T13:18:12.136Z</time>
      </trkpt>
      <trkpt lat="43.73713" lon="6.12938">
        <ele>462.2</ele>
        <time>2022-05-12T13:18:14.731Z</time>
      </trkpt>
      <trkpt lat="43.7371" lon="6.12952">
        <ele>463.6</ele>
        <time>2022-05-12T13:19:03.049Z</time>
      </trkpt>
      <trkpt lat="43.7371" lon="6.12966">
        <ele>468.8</ele>
        <time>2022-05-12T13:19:49.869Z</time>
      </trkpt>
      <trkpt lat="43.73712" lon="6.12976">
        <ele>473.3</ele>
        <time>2022-05-12T13:20:24.570Z</time>
      </trkpt>
      <trkpt lat="43.73717" lon="6.12983">
        <ele>481.6</ele>
        <time>2022-05-12T13:20:57.489Z</time>
      </trkpt>
      <trkpt lat="43.73718" lon="6.12998">
        <ele>484.7</ele>
        <time>2022-05-12T13:21:47.867Z</time>
      </trkpt>
      <trkpt lat="43.73722" lon="6.13012">
        <ele>490.4</ele>
        <time>2022-05-12T13:22:38.215Z</time>
      </trkpt>
      <trkpt lat="43.73723" lon="6.13023">
        <ele>491.1</ele>
        <time>2022-05-12T13:23:00.476Z</time>
      </trkpt>
      <trkpt lat="43.73723" lon="6.13036">
        <ele>491.2</ele>
        <time>2022-05-12T13:23:12.966Z</time>
      </trkpt>
      <trkpt lat="43.73728" lon="6.13049">
        <ele>493</ele>
        <time>2022-05-12T13:24:02.218Z</time>
      </trkpt>
      <trkpt lat="43.73729" lon="6.13061">
        <ele>491.7</ele>
        <time>2022-05-12T13:24:04.300Z</time>
      </trkpt>
      <trkpt lat="43.73733" lon="6.13075">
        <ele>489.6</ele>
        <time>2022-05-12T13:24:06.896Z</time>
      </trkpt>
      <trkpt lat="43.73742" lon="6.13083">
        <ele>490.8</ele>
        <time>2022-05-12T13:24:44.774Z</time>
      </trkpt>
      <trkpt lat="43.73757" lon="6.13089">
        <ele>494.6</ele>
        <time>2022-05-12T13:25:57.046Z</time>
      </trkpt>
      <trkpt lat="43.73773" lon="6.13097">
        <ele>497.7</ele>
        <time>2022-05-12T13:27:15.789Z</time>
      </trkpt>
      <trkpt lat="43.73785" lon="6.13093">
        <ele>499.9</ele>
        <time>2022-05-12T13:28:12.922Z</time>
      </trkpt>
      <trkpt lat="43.73792" lon="6.1309">
        <ele>500.8</ele>
        <time>2022-05-12T13:28:42.328Z</time>
      </trkpt>
      <trkpt lat="43.73804" lon="6.13088">
        <ele>502.2</ele>
        <time>2022-05-12T13:29:26.926Z</time>
      </trkpt>
      <trkpt lat="43.73815" lon="6.13083">
        <ele>503.4</ele>
        <time>2022-05-12T13:30:04.388Z</time>
      </trkpt>
      <trkpt lat="43.73825" lon="6.13078">
        <ele>505.4</ele>
        <time>2022-05-12T13:30:53.602Z</time>
      </trkpt>
      <trkpt lat="43.73833" lon="6.13074">
        <ele>507</ele>
        <time>2022-05-12T13:31:32.974Z</time>
      </trkpt>
      <trkpt lat="43.73841" lon="6.1307">
        <ele>508.3</ele>
        <time>2022-05-12T13:32:12.346Z</time>
      </trkpt>
      <trkpt lat="43.73851" lon="6.13071">
        <ele>509.3</ele>
        <time>2022-05-12T13:32:43.555Z</time>
      </trkpt>
      <trkpt lat="43.73862" lon="6.13068">
        <ele>510.6</ele>
        <time>2022-05-12T13:33:24.982Z</time>
      </trkpt>
      <trkpt lat="43.73871" lon="6.13065">
        <ele>511.1</ele>
        <time>2022-05-12T13:33:44.931Z</time>
      </trkpt>
      <trkpt lat="43.73881" lon="6.13069">
        <ele>511.9</ele>
        <time>2022-05-12T13:34:11.437Z</time>
      </trkpt>
      <trkpt lat="43.73887" lon="6.13068">
        <ele>512.2</ele>
        <time>2022-05-12T13:34:24.088Z</time>
      </trkpt>
      <trkpt lat="43.73888" lon="6.13067">
        <ele>512.2</ele>
        <time>2022-05-12T13:34:25.568Z</time>
      </trkpt>
      <trkpt lat="43.73887" lon="6.13068">
        <ele>512.3</ele>
        <time>2022-05-12T13:34:28.818Z</time>
      </trkpt>
      <trkpt lat="43.73891" lon="6.13064">
        <ele>512.2</ele>
        <time>2022-05-12T13:34:30.482Z</time>
      </trkpt>
      <trkpt lat="43.73898" lon="6.13057">
        <ele>512.6</ele>
        <time>2022-05-12T13:34:48.176Z</time>
      </trkpt>
      <trkpt lat="43.73908" lon="6.13054">
        <ele>514</ele>
        <time>2022-05-12T13:35:35.538Z</time>
      </trkpt>
      <trkpt lat="43.73918" lon="6.13055">
        <ele>515.4</ele>
        <time>2022-05-12T13:36:21.945Z</time>
      </trkpt>
      <trkpt lat="43.7393" lon="6.13057">
        <ele>518.2</ele>
        <time>2022-05-12T13:37:17.891Z</time>
      </trkpt>
      <trkpt lat="43.73941" lon="6.13057">
        <ele>520.6</ele>
        <time>2022-05-12T13:38:08.806Z</time>
      </trkpt>
      <trkpt lat="43.73949" lon="6.13052">
        <ele>522.2</ele>
        <time>2022-05-12T13:38:49.436Z</time>
      </trkpt>
      <trkpt lat="43.73961" lon="6.13053">
        <ele>523.5</ele>
        <time>2022-05-12T13:39:30.183Z</time>
      </trkpt>
      <trkpt lat="43.7397" lon="6.13047">
        <ele>525.1</ele>
        <time>2022-05-12T13:40:16.421Z</time>
      </trkpt>
      <trkpt lat="43.7398" lon="6.13042">
        <ele>526.7</ele>
        <time>2022-05-12T13:41:05.636Z</time>
      </trkpt>
      <trkpt lat="43.73991" lon="6.13039">
        <ele>528.2</ele>
        <time>2022-05-12T13:41:57.530Z</time>
      </trkpt>
      <trkpt lat="43.74" lon="6.13035">
        <ele>529.3</ele>
        <time>2022-05-12T13:42:32.627Z</time>
      </trkpt>
      <trkpt lat="43.7401" lon="6.13031">
        <ele>530.3</ele>
        <time>2022-05-12T13:43:03.912Z</time>
      </trkpt>
      <trkpt lat="43.74019" lon="6.13025">
        <ele>531.4</ele>
        <time>2022-05-12T13:43:38.495Z</time>
      </trkpt>
      <trkpt lat="43.74028" lon="6.13018">
        <ele>533</ele>
        <time>2022-05-12T13:44:26.280Z</time>
      </trkpt>
      <trkpt lat="43.74039" lon="6.13014">
        <ele>534.9</ele>
        <time>2022-05-12T13:45:18.923Z</time>
      </trkpt>
      <trkpt lat="43.74047" lon="6.13011">
        <ele>536</ele>
        <time>2022-05-12T13:45:56.893Z</time>
      </trkpt>
      <trkpt lat="43.74056" lon="6.13005">
        <ele>537</ele>
        <time>2022-05-12T13:46:28.099Z</time>
      </trkpt>
      <trkpt lat="43.74064" lon="6.12999">
        <ele>538</ele>
        <time>2022-05-12T13:46:59.527Z</time>
      </trkpt>
      <trkpt lat="43.74075" lon="6.12994">
        <ele>539.3</ele>
        <time>2022-05-12T13:47:40.570Z</time>
      </trkpt>
      <trkpt lat="43.74084" lon="6.12987">
        <ele>540.1</ele>
        <time>2022-05-12T13:48:06.992Z</time>
      </trkpt>
      <trkpt lat="43.74094" lon="6.12979">
        <ele>540.5</ele>
        <time>2022-05-12T13:48:27.292Z</time>
      </trkpt>
      <trkpt lat="43.74104" lon="6.12971">
        <ele>540.8</ele>
        <time>2022-05-12T13:48:45.479Z</time>
      </trkpt>
      <trkpt lat="43.74115" lon="6.12966">
        <ele>541.4</ele>
        <time>2022-05-12T13:49:10.067Z</time>
      </trkpt>
      <trkpt lat="43.74123" lon="6.12964">
        <ele>542</ele>
        <time>2022-05-12T13:49:30.278Z</time>
      </trkpt>
      <trkpt lat="43.74134" lon="6.12962">
        <ele>542.7</ele>
        <time>2022-05-12T13:49:55.742Z</time>
      </trkpt>
      <trkpt lat="43.74145" lon="6.1296">
        <ele>543.2</ele>
        <time>2022-05-12T13:50:18.293Z</time>
      </trkpt>
      <trkpt lat="43.74151" lon="6.12948">
        <ele>543.4</ele>
        <time>2022-05-12T13:50:33.606Z</time>
      </trkpt>
      <trkpt lat="43.74147" lon="6.12937">
        <ele>543.7</ele>
        <time>2022-05-12T13:50:49.054Z</time>
      </trkpt>
      <trkpt lat="43.74141" lon="6.12929">
        <ele>544.2</ele>
        <time>2022-05-12T13:51:07.763Z</time>
      </trkpt>
      <trkpt lat="43.74136" lon="6.12918">
        <ele>544.9</ele>
        <time>2022-05-12T13:51:31.242Z</time>
      </trkpt>
      <trkpt lat="43.74128" lon="6.12908">
        <ele>545.7</ele>
        <time>2022-05-12T13:51:58.126Z</time>
      </trkpt>
      <trkpt lat="43.74119" lon="6.12904">
        <ele>546.3</ele>
        <time>2022-05-12T13:52:19.881Z</time>
      </trkpt>
      <trkpt lat="43.7411" lon="6.12902">
        <ele>546.6</ele>
        <time>2022-05-12T13:52:35.541Z</time>
      </trkpt>
      <trkpt lat="43.74101" lon="6.12898">
        <ele>547.4</ele>
        <time>2022-05-12T13:53:01.197Z</time>
      </trkpt>
      <trkpt lat="43.7409" lon="6.12898">
        <ele>547.8</ele>
        <time>2022-05-12T13:53:20.990Z</time>
      </trkpt>
      <trkpt lat="43.74081" lon="6.12894">
        <ele>548.6</ele>
        <time>2022-05-12T13:53:46.647Z</time>
      </trkpt>
      <trkpt lat="43.74071" lon="6.12893">
        <ele>549.5</ele>
        <time>2022-05-12T13:54:15.097Z</time>
      </trkpt>
      <trkpt lat="43.7406" lon="6.12891">
        <ele>550.4</ele>
        <time>2022-05-12T13:54:44.340Z</time>
      </trkpt>
      <trkpt lat="43.7405" lon="6.12889">
        <ele>551.6</ele>
        <time>2022-05-12T13:55:22.927Z</time>
      </trkpt>
      <trkpt lat="43.74041" lon="6.12888">
        <ele>552.8</ele>
        <time>2022-05-12T13:56:04.403Z</time>
      </trkpt>
      <trkpt lat="43.7403" lon="6.12891">
        <ele>553.5</ele>
        <time>2022-05-12T13:56:30.015Z</time>
      </trkpt>
      <trkpt lat="43.74021" lon="6.12887">
        <ele>554.7</ele>
        <time>2022-05-12T13:57:10.019Z</time>
      </trkpt>
      <trkpt lat="43.74011" lon="6.12887">
        <ele>555.4</ele>
        <time>2022-05-12T13:57:34.166Z</time>
      </trkpt>
      <trkpt lat="43.74001" lon="6.12883">
        <ele>556.4</ele>
        <time>2022-05-12T13:58:05.452Z</time>
      </trkpt>
      <trkpt lat="43.73993" lon="6.12879">
        <ele>557</ele>
        <time>2022-05-12T13:58:26.075Z</time>
      </trkpt>
      <trkpt lat="43.73984" lon="6.12876">
        <ele>557.5</ele>
        <time>2022-05-12T13:58:46.024Z</time>
      </trkpt>
      <trkpt lat="43.73975" lon="6.12873">
        <ele>558</ele>
        <time>2022-05-12T13:59:05.973Z</time>
      </trkpt>
      <trkpt lat="43.73965" lon="6.12868">
        <ele>558.5</ele>
        <time>2022-05-12T13:59:27.857Z</time>
      </trkpt>
      <trkpt lat="43.73959" lon="6.12856">
        <ele>559.1</ele>
        <time>2022-05-12T13:59:51.030Z</time>
      </trkpt>
      <trkpt lat="43.73953" lon="6.12847">
        <ele>559.1</ele>
        <time>2022-05-12T14:00:01.647Z</time>
      </trkpt>
      <trkpt lat="43.73945" lon="6.12841">
        <ele>559</ele>
        <time>2022-05-12T14:00:05.088Z</time>
      </trkpt>
      <trkpt lat="43.73939" lon="6.12827">
        <ele>558.6</ele>
        <time>2022-05-12T14:00:08.504Z</time>
      </trkpt>
      <trkpt lat="43.73934" lon="6.12817">
        <ele>558</ele>
        <time>2022-05-12T14:00:10.600Z</time>
      </trkpt>
      <trkpt lat="43.73931" lon="6.12803">
        <ele>557.4</ele>
        <time>2022-05-12T14:00:13.091Z</time>
      </trkpt>
      <trkpt lat="43.73926" lon="6.12789">
        <ele>556.4</ele>
        <time>2022-05-12T14:00:15.784Z</time>
      </trkpt>
      <trkpt lat="43.73923" lon="6.12774">
        <ele>555.5</ele>
        <time>2022-05-12T14:00:18.467Z</time>
      </trkpt>
      <trkpt lat="43.73921" lon="6.12761">
        <ele>554.2</ele>
        <time>2022-05-12T14:00:20.758Z</time>
      </trkpt>
      <trkpt lat="43.73921" lon="6.12744">
        <ele>552.8</ele>
        <time>2022-05-12T14:00:23.688Z</time>
      </trkpt>
      <trkpt lat="43.7392" lon="6.1273">
        <ele>551.3</ele>
        <time>2022-05-12T14:00:26.114Z</time>
      </trkpt>
      <trkpt lat="43.73918" lon="6.12718">
        <ele>549.9</ele>
        <time>2022-05-12T14:00:28.236Z</time>
      </trkpt>
      <trkpt lat="43.73917" lon="6.12704">
        <ele>548.7</ele>
        <time>2022-05-12T14:00:30.662Z</time>
      </trkpt>
      <trkpt lat="43.73919" lon="6.12689">
        <ele>547.6</ele>
        <time>2022-05-12T14:00:33.291Z</time>
      </trkpt>
      <trkpt lat="43.73923" lon="6.12677">
        <ele>546.3</ele>
        <time>2022-05-12T14:00:35.569Z</time>
      </trkpt>
      <trkpt lat="43.73928" lon="6.12665">
        <ele>545</ele>
        <time>2022-05-12T14:00:37.957Z</time>
      </trkpt>
      <trkpt lat="43.73929" lon="6.12651">
        <ele>543.2</ele>
        <time>2022-05-12T14:00:40.382Z</time>
      </trkpt>
      <trkpt lat="43.73931" lon="6.12638">
        <ele>541.5</ele>
        <time>2022-05-12T14:00:42.673Z</time>
      </trkpt>
      <trkpt lat="43.73935" lon="6.12624">
        <ele>540.1</ele>
        <time>2022-05-12T14:00:45.269Z</time>
      </trkpt>
      <trkpt lat="43.73939" lon="6.12614">
        <ele>539.5</ele>
        <time>2022-05-12T14:00:47.239Z</time>
      </trkpt>
      <trkpt lat="43.73944" lon="6.12602">
        <ele>538.9</ele>
        <time>2022-05-12T14:00:49.544Z</time>
      </trkpt>
      <trkpt lat="43.73949" lon="6.12589">
        <ele>538.5</ele>
        <time>2022-05-12T14:00:52.527Z</time>
      </trkpt>
      <trkpt lat="43.73952" lon="6.12577">
        <ele>537.5</ele>
        <time>2022-05-12T14:00:54.716Z</time>
      </trkpt>
      <trkpt lat="43.73954" lon="6.12564">
        <ele>536.5</ele>
        <time>2022-05-12T14:00:57.007Z</time>
      </trkpt>
      <trkpt lat="43.73953" lon="6.1255">
        <ele>535.1</ele>
        <time>2022-05-12T14:00:59.432Z</time>
      </trkpt>
      <trkpt lat="43.7395" lon="6.12539">
        <ele>534.1</ele>
        <time>2022-05-12T14:01:01.459Z</time>
      </trkpt>
      <trkpt lat="43.73946" lon="6.12528">
        <ele>532.5</ele>
        <time>2022-05-12T14:01:03.582Z</time>
      </trkpt>
      <trkpt lat="43.73941" lon="6.12518">
        <ele>531.8</ele>
        <time>2022-05-12T14:01:05.678Z</time>
      </trkpt>
      <trkpt lat="43.73938" lon="6.12506">
        <ele>531.9</ele>
        <time>2022-05-12T14:01:17.909Z</time>
      </trkpt>
      <trkpt lat="43.73932" lon="6.12494">
        <ele>530.5</ele>
        <time>2022-05-12T14:01:20.425Z</time>
      </trkpt>
      <trkpt lat="43.73934" lon="6.12482">
        <ele>530.7</ele>
        <time>2022-05-12T14:01:33.870Z</time>
      </trkpt>
      <trkpt lat="43.73935" lon="6.12467">
        <ele>530.5</ele>
        <time>2022-05-12T14:01:37.623Z</time>
      </trkpt>
      <trkpt lat="43.73936" lon="6.12452">
        <ele>529</ele>
        <time>2022-05-12T14:01:40.219Z</time>
      </trkpt>
      <trkpt lat="43.73937" lon="6.12438">
        <ele>527.3</ele>
        <time>2022-05-12T14:01:42.645Z</time>
      </trkpt>
      <trkpt lat="43.73939" lon="6.12426">
        <ele>526.7</ele>
        <time>2022-05-12T14:01:44.767Z</time>
      </trkpt>
      <trkpt lat="43.73941" lon="6.12411">
        <ele>525.4</ele>
        <time>2022-05-12T14:01:47.397Z</time>
      </trkpt>
      <trkpt lat="43.73944" lon="6.12398">
        <ele>525.1</ele>
        <time>2022-05-12T14:01:50.368Z</time>
      </trkpt>
      <trkpt lat="43.73946" lon="6.12383">
        <ele>524.5</ele>
        <time>2022-05-12T14:01:53.023Z</time>
      </trkpt>
      <trkpt lat="43.73948" lon="6.12371">
        <ele>524.7</ele>
        <time>2022-05-12T14:02:06.469Z</time>
      </trkpt>
      <trkpt lat="43.73952" lon="6.12359">
        <ele>525.2</ele>
        <time>2022-05-12T14:02:26.819Z</time>
      </trkpt>
      <trkpt lat="43.73958" lon="6.12347">
        <ele>525.2</ele>
        <time>2022-05-12T14:02:39.472Z</time>
      </trkpt>
      <trkpt lat="43.73963" lon="6.12333">
        <ele>524.3</ele>
        <time>2022-05-12T14:02:42.164Z</time>
      </trkpt>
      <trkpt lat="43.73969" lon="6.12323">
        <ele>523.7</ele>
        <time>2022-05-12T14:02:44.261Z</time>
      </trkpt>
      <trkpt lat="43.73975" lon="6.12313">
        <ele>524.7</ele>
        <time>2022-05-12T14:03:15.544Z</time>
      </trkpt>
      <trkpt lat="43.73979" lon="6.12301">
        <ele>523.9</ele>
        <time>2022-05-12T14:03:17.822Z</time>
      </trkpt>
      <trkpt lat="43.73982" lon="6.12289">
        <ele>521.8</ele>
        <time>2022-05-12T14:03:20.011Z</time>
      </trkpt>
      <trkpt lat="43.73986" lon="6.12277">
        <ele>520.1</ele>
        <time>2022-05-12T14:03:22.289Z</time>
      </trkpt>
      <trkpt lat="43.73991" lon="6.12266">
        <ele>518.2</ele>
        <time>2022-05-12T14:03:24.529Z</time>
      </trkpt>
      <trkpt lat="43.73998" lon="6.12257">
        <ele>518</ele>
        <time>2022-05-12T14:03:27.725Z</time>
      </trkpt>
      <trkpt lat="43.74005" lon="6.12247">
        <ele>517.9</ele>
        <time>2022-05-12T14:03:31.583Z</time>
      </trkpt>
      <trkpt lat="43.7401" lon="6.12235">
        <ele>516.8</ele>
        <time>2022-05-12T14:03:33.971Z</time>
      </trkpt>
      <trkpt lat="43.74012" lon="6.12223">
        <ele>514.8</ele>
        <time>2022-05-12T14:03:36.094Z</time>
      </trkpt>
      <trkpt lat="43.74017" lon="6.12212">
        <ele>515.1</ele>
        <time>2022-05-12T14:03:52.023Z</time>
      </trkpt>
      <trkpt lat="43.74019" lon="6.12198">
        <ele>513.3</ele>
        <time>2022-05-12T14:03:54.483Z</time>
      </trkpt>
      <trkpt lat="43.74021" lon="6.12184">
        <ele>511.8</ele>
        <time>2022-05-12T14:03:56.943Z</time>
      </trkpt>
      <trkpt lat="43.74024" lon="6.12171">
        <ele>511.8</ele>
        <time>2022-05-12T14:04:08.775Z</time>
      </trkpt>
      <trkpt lat="43.7403" lon="6.1216">
        <ele>513.9</ele>
        <time>2022-05-12T14:04:54.867Z</time>
      </trkpt>
      <trkpt lat="43.74033" lon="6.12147">
        <ele>513</ele>
        <time>2022-05-12T14:04:57.220Z</time>
      </trkpt>
      <trkpt lat="43.74037" lon="6.12133">
        <ele>510.9</ele>
        <time>2022-05-12T14:04:59.815Z</time>
      </trkpt>
      <trkpt lat="43.74044" lon="6.12123">
        <ele>510.6</ele>
        <time>2022-05-12T14:05:02.866Z</time>
      </trkpt>
      <trkpt lat="43.7405" lon="6.12112">
        <ele>509.6</ele>
        <time>2022-05-12T14:05:05.242Z</time>
      </trkpt>
      <trkpt lat="43.74056" lon="6.121">
        <ele>509.2</ele>
        <time>2022-05-12T14:05:08.188Z</time>
      </trkpt>
      <trkpt lat="43.74062" lon="6.12088">
        <ele>509</ele>
        <time>2022-05-12T14:05:11.797Z</time>
      </trkpt>
      <trkpt lat="43.74066" lon="6.12076">
        <ele>509</ele>
        <time>2022-05-12T14:05:23.255Z</time>
      </trkpt>
      <trkpt lat="43.74069" lon="6.12063">
        <ele>507.9</ele>
        <time>2022-05-12T14:05:25.607Z</time>
      </trkpt>
      <trkpt lat="43.7407" lon="6.12048">
        <ele>506.3</ele>
        <time>2022-05-12T14:05:28.204Z</time>
      </trkpt>
      <trkpt lat="43.74073" lon="6.12034">
        <ele>505.3</ele>
        <time>2022-05-12T14:05:30.721Z</time>
      </trkpt>
      <trkpt lat="43.74079" lon="6.12025">
        <ele>505</ele>
        <time>2022-05-12T14:05:33.294Z</time>
      </trkpt>
      <trkpt lat="43.7408" lon="6.1201">
        <ele>502</ele>
        <time>2022-05-12T14:05:35.891Z</time>
      </trkpt>
      <trkpt lat="43.74087" lon="6.11997">
        <ele>502.5</ele>
        <time>2022-05-12T14:05:58.972Z</time>
      </trkpt>
      <trkpt lat="43.74093" lon="6.11986">
        <ele>502.2</ele>
        <time>2022-05-12T14:06:01.982Z</time>
      </trkpt>
      <trkpt lat="43.74098" lon="6.11975">
        <ele>501.5</ele>
        <time>2022-05-12T14:06:04.222Z</time>
      </trkpt>
      <trkpt lat="43.74104" lon="6.11964">
        <ele>500.1</ele>
        <time>2022-05-12T14:06:06.598Z</time>
      </trkpt>
      <trkpt lat="43.74106" lon="6.11955">
        <ele>498.6</ele>
        <time>2022-05-12T14:06:08.221Z</time>
      </trkpt>
      <trkpt lat="43.7411" lon="6.11944">
        <ele>498.7</ele>
        <time>2022-05-12T14:06:20.123Z</time>
      </trkpt>
      <trkpt lat="43.74116" lon="6.11934">
        <ele>499.7</ele>
        <time>2022-05-12T14:06:51.406Z</time>
      </trkpt>
      <trkpt lat="43.7412" lon="6.11924">
        <ele>498.9</ele>
        <time>2022-05-12T14:06:53.377Z</time>
      </trkpt>
      <trkpt lat="43.74126" lon="6.11912">
        <ele>497.4</ele>
        <time>2022-05-12T14:06:55.892Z</time>
      </trkpt>
      <trkpt lat="43.74133" lon="6.11901">
        <ele>496.3</ele>
        <time>2022-05-12T14:06:58.419Z</time>
      </trkpt>
      <trkpt lat="43.74138" lon="6.1189">
        <ele>495.6</ele>
        <time>2022-05-12T14:07:00.659Z</time>
      </trkpt>
      <trkpt lat="43.74144" lon="6.11878">
        <ele>494.8</ele>
        <time>2022-05-12T14:07:03.175Z</time>
      </trkpt>
      <trkpt lat="43.74146" lon="6.11864">
        <ele>492.1</ele>
        <time>2022-05-12T14:07:05.635Z</time>
      </trkpt>
      <trkpt lat="43.74153" lon="6.11855">
        <ele>490.5</ele>
        <time>2022-05-12T14:07:07.915Z</time>
      </trkpt>
      <trkpt lat="43.74161" lon="6.11846">
        <ele>489.8</ele>
        <time>2022-05-12T14:07:10.374Z</time>
      </trkpt>
      <trkpt lat="43.74165" lon="6.11832">
        <ele>488.1</ele>
        <time>2022-05-12T14:07:12.969Z</time>
      </trkpt>
      <trkpt lat="43.74167" lon="6.11819">
        <ele>485.8</ele>
        <time>2022-05-12T14:07:15.261Z</time>
      </trkpt>
      <trkpt lat="43.74172" lon="6.11808">
        <ele>483.4</ele>
        <time>2022-05-12T14:07:17.501Z</time>
      </trkpt>
      <trkpt lat="43.7418" lon="6.11802">
        <ele>481.4</ele>
        <time>2022-05-12T14:07:19.672Z</time>
      </trkpt>
      <trkpt lat="43.74187" lon="6.11795">
        <ele>479.8</ele>
        <time>2022-05-12T14:07:21.732Z</time>
      </trkpt>
      <trkpt lat="43.74197" lon="6.11788">
        <ele>480</ele>
        <time>2022-05-12T14:07:37.808Z</time>
      </trkpt>
      <trkpt lat="43.74205" lon="6.11782">
        <ele>478.1</ele>
        <time>2022-05-12T14:07:39.979Z</time>
      </trkpt>
      <trkpt lat="43.74212" lon="6.11772">
        <ele>474.9</ele>
        <time>2022-05-12T14:07:42.379Z</time>
      </trkpt>
      <trkpt lat="43.74222" lon="6.11766">
        <ele>473.7</ele>
        <time>2022-05-12T14:07:44.979Z</time>
      </trkpt>
      <trkpt lat="43.74233" lon="6.1177">
        <ele>472.8</ele>
        <time>2022-05-12T14:07:47.693Z</time>
      </trkpt>
      <trkpt lat="43.74243" lon="6.11773">
        <ele>471.4</ele>
        <time>2022-05-12T14:07:50.134Z</time>
      </trkpt>
      <trkpt lat="43.74253" lon="6.11776">
        <ele>470.3</ele>
        <time>2022-05-12T14:07:52.576Z</time>
      </trkpt>
      <trkpt lat="43.74262" lon="6.11778">
        <ele>470</ele>
        <time>2022-05-12T14:07:55.253Z</time>
      </trkpt>
      <trkpt lat="43.74271" lon="6.11783">
        <ele>470.5</ele>
        <time>2022-05-12T14:08:15.812Z</time>
      </trkpt>
      <trkpt lat="43.74282" lon="6.11782">
        <ele>469.2</ele>
        <time>2022-05-12T14:08:18.442Z</time>
      </trkpt>
      <trkpt lat="43.74292" lon="6.11781">
        <ele>468</ele>
        <time>2022-05-12T14:08:20.835Z</time>
      </trkpt>
      <trkpt lat="43.743" lon="6.11773">
        <ele>465.2</ele>
        <time>2022-05-12T14:08:23.189Z</time>
      </trkpt>
      <trkpt lat="43.7431" lon="6.11776">
        <ele>464.7</ele>
        <time>2022-05-12T14:08:25.775Z</time>
      </trkpt>
      <trkpt lat="43.74318" lon="6.11786">
        <ele>466.1</ele>
        <time>2022-05-12T14:09:13.230Z</time>
      </trkpt>
      <trkpt lat="43.74327" lon="6.11786">
        <ele>464.2</ele>
        <time>2022-05-12T14:09:15.377Z</time>
      </trkpt>
      <trkpt lat="43.74339" lon="6.11786">
        <ele>463</ele>
        <time>2022-05-12T14:09:18.241Z</time>
      </trkpt>
      <trkpt lat="43.74349" lon="6.11781">
        <ele>461.5</ele>
        <time>2022-05-12T14:09:20.777Z</time>
      </trkpt>
      <trkpt lat="43.74357" lon="6.11775">
        <ele>459.3</ele>
        <time>2022-05-12T14:09:22.948Z</time>
      </trkpt>
      <trkpt lat="43.74366" lon="6.11767">
        <ele>456.5</ele>
        <time>2022-05-12T14:09:25.500Z</time>
      </trkpt>
      <trkpt lat="43.74375" lon="6.11764">
        <ele>455.2</ele>
        <time>2022-05-12T14:09:27.709Z</time>
      </trkpt>
      <trkpt lat="43.74384" lon="6.11765">
        <ele>454.8</ele>
        <time>2022-05-12T14:09:30.085Z</time>
      </trkpt>
      <trkpt lat="43.74395" lon="6.11766">
        <ele>454.9</ele>
        <time>2022-05-12T14:09:44.513Z</time>
      </trkpt>
      <trkpt lat="43.74405" lon="6.11766">
        <ele>454.9</ele>
        <time>2022-05-12T14:09:56.513Z</time>
      </trkpt>
      <trkpt lat="43.74415" lon="6.11756">
        <ele>451.8</ele>
        <time>2022-05-12T14:09:59.457Z</time>
      </trkpt>
      <trkpt lat="43.74425" lon="6.11753">
        <ele>451</ele>
        <time>2022-05-12T14:10:01.898Z</time>
      </trkpt>
      <trkpt lat="43.74434" lon="6.11748">
        <ele>449.2</ele>
        <time>2022-05-12T14:10:04.212Z</time>
      </trkpt>
      <trkpt lat="43.74441" lon="6.11738">
        <ele>445.4</ele>
        <time>2022-05-12T14:10:06.612Z</time>
      </trkpt>
      <trkpt lat="43.74452" lon="6.11733">
        <ele>443.4</ele>
        <time>2022-05-12T14:10:09.375Z</time>
      </trkpt>
      <trkpt lat="43.74463" lon="6.11729">
        <ele>441</ele>
        <time>2022-05-12T14:10:12.088Z</time>
      </trkpt>
      <trkpt lat="43.74472" lon="6.11727">
        <ele>439.6</ele>
        <time>2022-05-12T14:10:14.263Z</time>
      </trkpt>
      <trkpt lat="43.74482" lon="6.11724">
        <ele>439.5</ele>
        <time>2022-05-12T14:10:18.195Z</time>
      </trkpt>
      <trkpt lat="43.74491" lon="6.11716">
        <ele>435.6</ele>
        <time>2022-05-12T14:10:20.747Z</time>
      </trkpt>
      <trkpt lat="43.745" lon="6.1171">
        <ele>432</ele>
        <time>2022-05-12T14:10:23.131Z</time>
      </trkpt>
      <trkpt lat="43.74508" lon="6.11702">
        <ele>428.7</ele>
        <time>2022-05-12T14:10:25.485Z</time>
      </trkpt>
      <trkpt lat="43.74516" lon="6.11697">
        <ele>428.3</ele>
        <time>2022-05-12T14:10:27.769Z</time>
      </trkpt>
      <trkpt lat="43.74523" lon="6.11692">
        <ele>427.9</ele>
        <time>2022-05-12T14:10:29.727Z</time>
      </trkpt>
      <trkpt lat="43.74529" lon="6.11681">
        <ele>423.2</ele>
        <time>2022-05-12T14:10:32.102Z</time>
      </trkpt>
      <trkpt lat="43.74533" lon="6.11681">
        <ele>424.4</ele>
        <time>2022-05-12T14:10:50.617Z</time>
      </trkpt>
      <trkpt lat="43.74533" lon="6.1169">
        <ele>430.3</ele>
        <time>2022-05-12T14:11:20.712Z</time>
      </trkpt>
      <trkpt lat="43.7453" lon="6.11688">
        <ele>428</ele>
        <time>2022-05-12T14:11:21.506Z</time>
      </trkpt>
      <trkpt lat="43.74529" lon="6.11689">
        <ele>428.3</ele>
        <time>2022-05-12T14:11:27.216Z</time>
      </trkpt>
      <trkpt lat="43.74531" lon="6.11687">
        <ele>427.8</ele>
        <time>2022-05-12T14:11:27.805Z</time>
      </trkpt>
      <trkpt lat="43.74533" lon="6.11686">
        <ele>427.4</ele>
        <time>2022-05-12T14:11:28.312Z</time>
      </trkpt>
      <trkpt lat="43.74536" lon="6.11677">
        <ele>423.5</ele>
        <time>2022-05-12T14:11:30.021Z</time>
      </trkpt>
      <trkpt lat="43.74545" lon="6.11666">
        <ele>420.5</ele>
        <time>2022-05-12T14:11:32.886Z</time>
      </trkpt>
      <trkpt lat="43.74552" lon="6.11657">
        <ele>417.5</ele>
        <time>2022-05-12T14:11:35.165Z</time>
      </trkpt>
      <trkpt lat="43.7456" lon="6.1165">
        <ele>417.9</ele>
        <time>2022-05-12T14:11:53.697Z</time>
      </trkpt>
      <trkpt lat="43.74569" lon="6.11642">
        <ele>421.1</ele>
        <time>2022-05-12T14:12:43.204Z</time>
      </trkpt>
      <trkpt lat="43.74576" lon="6.11634">
        <ele>423.3</ele>
        <time>2022-05-12T14:13:25.221Z</time>
      </trkpt>
      <trkpt lat="43.74584" lon="6.11626">
        <ele>421.8</ele>
        <time>2022-05-12T14:13:27.576Z</time>
      </trkpt>
      <trkpt lat="43.7459" lon="6.11618">
        <ele>419.2</ele>
        <time>2022-05-12T14:13:29.563Z</time>
      </trkpt>
      <trkpt lat="43.74599" lon="6.11612">
        <ele>422.1</ele>
        <time>2022-05-12T14:14:15.801Z</time>
      </trkpt>
      <trkpt lat="43.74602" lon="6.11611">
        <ele>423.3</ele>
        <time>2022-05-12T14:14:30.084Z</time>
      </trkpt>
      <trkpt lat="43.74609" lon="6.11615">
        <ele>430.5</ele>
        <time>2022-05-12T14:15:05.137Z</time>
      </trkpt>
      <trkpt lat="43.7462" lon="6.11615">
        <ele>432.3</ele>
        <time>2022-05-12T14:15:56.052Z</time>
      </trkpt>
      <trkpt lat="43.74625" lon="6.11608">
        <ele>430.3</ele>
        <time>2022-05-12T14:15:57.749Z</time>
      </trkpt>
      <trkpt lat="43.74622" lon="6.11604">
        <ele>428.3</ele>
        <time>2022-05-12T14:15:58.743Z</time>
      </trkpt>
      <trkpt lat="43.74607" lon="6.11591">
        <ele>413.4</ele>
        <time>2022-05-12T14:16:02.965Z</time>
      </trkpt>
      <trkpt lat="43.74624" lon="6.11609">
        <ele>430.9</ele>
        <time>2022-05-12T14:17:42.033Z</time>
      </trkpt>
      <trkpt lat="43.74625" lon="6.116">
        <ele>427.9</ele>
        <time>2022-05-12T14:17:43.603Z</time>
      </trkpt>
      <trkpt lat="43.74621" lon="6.11587">
        <ele>420.3</ele>
        <time>2022-05-12T14:17:46.038Z</time>
      </trkpt>
      <trkpt lat="43.74622" lon="6.11572">
        <ele>418.1</ele>
        <time>2022-05-12T14:17:48.635Z</time>
      </trkpt>
      <trkpt lat="43.74627" lon="6.11559">
        <ele>421.6</ele>
        <time>2022-05-12T14:18:37.881Z</time>
      </trkpt>
      <trkpt lat="43.7463" lon="6.11545">
        <ele>422</ele>
        <time>2022-05-12T14:18:57.277Z</time>
      </trkpt>
      <trkpt lat="43.74636" lon="6.11532">
        <ele>423.5</ele>
        <time>2022-05-12T14:19:48.861Z</time>
      </trkpt>
      <trkpt lat="43.74642" lon="6.11522">
        <ele>424.5</ele>
        <time>2022-05-12T14:20:20.144Z</time>
      </trkpt>
      <trkpt lat="43.74649" lon="6.11513">
        <ele>425.3</ele>
        <time>2022-05-12T14:20:45.879Z</time>
      </trkpt>
      <trkpt lat="43.7465" lon="6.11498">
        <ele>421.8</ele>
        <time>2022-05-12T14:20:48.476Z</time>
      </trkpt>
      <trkpt lat="43.74652" lon="6.11484">
        <ele>420.1</ele>
        <time>2022-05-12T14:20:50.935Z</time>
      </trkpt>
      <trkpt lat="43.74654" lon="6.1147">
        <ele>419</ele>
        <time>2022-05-12T14:20:53.395Z</time>
      </trkpt>
      <trkpt lat="43.74655" lon="6.11457">
        <ele>419.5</ele>
        <time>2022-05-12T14:21:13.602Z</time>
      </trkpt>
      <trkpt lat="43.74654" lon="6.11444">
        <ele>418.5</ele>
        <time>2022-05-12T14:21:15.855Z</time>
      </trkpt>
      <trkpt lat="43.74656" lon="6.11429">
        <ele>420.7</ele>
        <time>2022-05-12T14:22:06.859Z</time>
      </trkpt>
      <trkpt lat="43.74657" lon="6.11417">
        <ele>421.3</ele>
        <time>2022-05-12T14:22:27.736Z</time>
      </trkpt>
      <trkpt lat="43.74655" lon="6.11402">
        <ele>419.6</ele>
        <time>2022-05-12T14:22:30.365Z</time>
      </trkpt>
      <trkpt lat="43.74656" lon="6.11389">
        <ele>420</ele>
        <time>2022-05-12T14:22:48.882Z</time>
      </trkpt>
      <trkpt lat="43.74657" lon="6.11376">
        <ele>421.9</ele>
        <time>2022-05-12T14:23:32.597Z</time>
      </trkpt>
      <trkpt lat="43.74655" lon="6.11364">
        <ele>420.9</ele>
        <time>2022-05-12T14:23:34.720Z</time>
      </trkpt>
      <trkpt lat="43.74657" lon="6.1135">
        <ele>422</ele>
        <time>2022-05-12T14:24:09.138Z</time>
      </trkpt>
      <trkpt lat="43.74663" lon="6.11339">
        <ele>424.6</ele>
        <time>2022-05-12T14:24:55.227Z</time>
      </trkpt>
      <trkpt lat="43.74659" lon="6.11329">
        <ele>422.8</ele>
        <time>2022-05-12T14:24:57.197Z</time>
      </trkpt>
      <trkpt lat="43.74655" lon="6.11317">
        <ele>422</ele>
        <time>2022-05-12T14:24:59.475Z</time>
      </trkpt>
      <trkpt lat="43.7465" lon="6.11304">
        <ele>421.1</ele>
        <time>2022-05-12T14:25:02.014Z</time>
      </trkpt>
      <trkpt lat="43.74648" lon="6.11291">
        <ele>421.6</ele>
        <time>2022-05-12T14:25:22.439Z</time>
      </trkpt>
      <trkpt lat="43.74649" lon="6.11276">
        <ele>423.8</ele>
        <time>2022-05-12T14:26:12.809Z</time>
      </trkpt>
      <trkpt lat="43.74646" lon="6.11261">
        <ele>424.5</ele>
        <time>2022-05-12T14:26:38.462Z</time>
      </trkpt>
      <trkpt lat="43.74646" lon="6.11248">
        <ele>426.4</ele>
        <time>2022-05-12T14:27:21.931Z</time>
      </trkpt>
      <trkpt lat="43.74646" lon="6.11235">
        <ele>427.8</ele>
        <time>2022-05-12T14:28:05.401Z</time>
      </trkpt>
      <trkpt lat="43.74645" lon="6.11221">
        <ele>428.6</ele>
        <time>2022-05-12T14:28:31.668Z</time>
      </trkpt>
      <trkpt lat="43.74643" lon="6.11207">
        <ele>427.9</ele>
        <time>2022-05-12T14:28:34.128Z</time>
      </trkpt>
      <trkpt lat="43.74642" lon="6.11193">
        <ele>427.3</ele>
        <time>2022-05-12T14:28:36.486Z</time>
      </trkpt>
      <trkpt lat="43.7464" lon="6.11179">
        <ele>426.4</ele>
        <time>2022-05-12T14:28:38.946Z</time>
      </trkpt>
      <trkpt lat="43.74636" lon="6.11165">
        <ele>425.4</ele>
        <time>2022-05-12T14:28:41.541Z</time>
      </trkpt>
      <trkpt lat="43.74636" lon="6.11152">
        <ele>426.4</ele>
        <time>2022-05-12T14:29:12.824Z</time>
      </trkpt>
      <trkpt lat="43.74634" lon="6.11139">
        <ele>426.6</ele>
        <time>2022-05-12T14:29:27.063Z</time>
      </trkpt>
      <trkpt lat="43.74634" lon="6.11124">
        <ele>427.2</ele>
        <time>2022-05-12T14:29:50.630Z</time>
      </trkpt>
      <trkpt lat="43.7463" lon="6.11108">
        <ele>426.8</ele>
        <time>2022-05-12T14:29:54.230Z</time>
      </trkpt>
      <trkpt lat="43.74631" lon="6.11091">
        <ele>427.4</ele>
        <time>2022-05-12T14:30:19.865Z</time>
      </trkpt>
      <trkpt lat="43.74629" lon="6.11075">
        <ele>426.7</ele>
        <time>2022-05-12T14:30:22.573Z</time>
      </trkpt>
      <trkpt lat="43.74626" lon="6.11057">
        <ele>425.6</ele>
        <time>2022-05-12T14:30:25.757Z</time>
      </trkpt>
      <trkpt lat="43.7462" lon="6.11043">
        <ele>422.7</ele>
        <time>2022-05-12T14:30:28.563Z</time>
      </trkpt>
      <trkpt lat="43.7462" lon="6.11027">
        <ele>420.6</ele>
        <time>2022-05-12T14:30:31.321Z</time>
      </trkpt>
      <trkpt lat="43.74622" lon="6.11014">
        <ele>420.4</ele>
        <time>2022-05-12T14:30:34.537Z</time>
      </trkpt>
      <trkpt lat="43.74624" lon="6.11">
        <ele>420.6</ele>
        <time>2022-05-12T14:30:49.582Z</time>
      </trkpt>
      <trkpt lat="43.74625" lon="6.10978">
        <ele>420.5</ele>
        <time>2022-05-12T14:31:07.014Z</time>
      </trkpt>
      <trkpt lat="43.74627" lon="6.10964">
        <ele>420.6</ele>
        <time>2022-05-12T14:31:20.593Z</time>
      </trkpt>
      <trkpt lat="43.74628" lon="6.10949">
        <ele>419.9</ele>
        <time>2022-05-12T14:31:23.014Z</time>
      </trkpt>
      <trkpt lat="43.74631" lon="6.10934">
        <ele>419.9</ele>
        <time>2022-05-12T14:31:36.507Z</time>
      </trkpt>
      <trkpt lat="43.74633" lon="6.10921">
        <ele>418.6</ele>
        <time>2022-05-12T14:31:38.798Z</time>
      </trkpt>
      <trkpt lat="43.74639" lon="6.1091">
        <ele>420</ele>
        <time>2022-05-12T14:32:24.887Z</time>
      </trkpt>
      <trkpt lat="43.74642" lon="6.10894">
        <ele>418.5</ele>
        <time>2022-05-12T14:32:27.736Z</time>
      </trkpt>
      <trkpt lat="43.74647" lon="6.10878">
        <ele>416.3</ele>
        <time>2022-05-12T14:32:30.741Z</time>
      </trkpt>
      <trkpt lat="43.74653" lon="6.10864">
        <ele>414.2</ele>
        <time>2022-05-12T14:32:33.547Z</time>
      </trkpt>
      <trkpt lat="43.74664" lon="6.10858">
        <ele>414.3</ele>
        <time>2022-05-12T14:32:48.926Z</time>
      </trkpt>
      <trkpt lat="43.7468" lon="6.10854">
        <ele>414.9</ele>
        <time>2022-05-12T14:33:18.400Z</time>
      </trkpt>
      <trkpt lat="43.74692" lon="6.1085">
        <ele>415.1</ele>
        <time>2022-05-12T14:33:35.794Z</time>
      </trkpt>
      <trkpt lat="43.74705" lon="6.10844">
        <ele>414</ele>
        <time>2022-05-12T14:33:39.063Z</time>
      </trkpt>
      <trkpt lat="43.74717" lon="6.1084">
        <ele>413.1</ele>
        <time>2022-05-12T14:33:42.008Z</time>
      </trkpt>
      <trkpt lat="43.74731" lon="6.10837">
        <ele>411.9</ele>
        <time>2022-05-12T14:33:45.388Z</time>
      </trkpt>
      <trkpt lat="43.74749" lon="6.1084">
        <ele>413.1</ele>
        <time>2022-05-12T14:34:27.945Z</time>
      </trkpt>
      <trkpt lat="43.7476" lon="6.10838">
        <ele>411.7</ele>
        <time>2022-05-12T14:34:30.592Z</time>
      </trkpt>
      <trkpt lat="43.74774" lon="6.10839">
        <ele>411.2</ele>
        <time>2022-05-12T14:34:34.597Z</time>
      </trkpt>
      <trkpt lat="43.74786" lon="6.10838">
        <ele>410.1</ele>
        <time>2022-05-12T14:34:37.466Z</time>
      </trkpt>
      <trkpt lat="43.74793" lon="6.10832">
        <ele>407.7</ele>
        <time>2022-05-12T14:34:39.430Z</time>
      </trkpt>
      <trkpt lat="43.74808" lon="6.10836">
        <ele>408.2</ele>
        <time>2022-05-12T14:35:05.611Z</time>
      </trkpt>
      <trkpt lat="43.74824" lon="6.10841">
        <ele>410.3</ele>
        <time>2022-05-12T14:36:16.031Z</time>
      </trkpt>
      <trkpt lat="43.74835" lon="6.10838">
        <ele>408.9</ele>
        <time>2022-05-12T14:36:18.706Z</time>
      </trkpt>
      <trkpt lat="43.74877" lon="6.10835">
        <ele>405.6</ele>
        <time>2022-05-12T14:36:28.741Z</time>
      </trkpt>
      <trkpt lat="43.74891" lon="6.10837">
        <ele>406.5</ele>
        <time>2022-05-12T14:37:01.243Z</time>
      </trkpt>
      <trkpt lat="43.74901" lon="6.10839">
        <ele>407.2</ele>
        <time>2022-05-12T14:37:25.510Z</time>
      </trkpt>
      <trkpt lat="43.74905" lon="6.10841">
        <ele>407.8</ele>
        <time>2022-05-12T14:37:45.195Z</time>
      </trkpt>
      <trkpt lat="43.74915" lon="6.10842">
        <ele>408.1</ele>
        <time>2022-05-12T14:38:01.769Z</time>
      </trkpt>
      <trkpt lat="43.74926" lon="6.10838">
        <ele>406.8</ele>
        <time>2022-05-12T14:38:04.483Z</time>
      </trkpt>
      <trkpt lat="43.74942" lon="6.10841">
        <ele>407.8</ele>
        <time>2022-05-12T14:38:41.236Z</time>
      </trkpt>
      <trkpt lat="43.74953" lon="6.10842">
        <ele>408.4</ele>
        <time>2022-05-12T14:39:05.059Z</time>
      </trkpt>
      <trkpt lat="43.74962" lon="6.10839">
        <ele>408.2</ele>
        <time>2022-05-12T14:39:08.132Z</time>
      </trkpt>
      <trkpt lat="43.74974" lon="6.10831">
        <ele>407</ele>
        <time>2022-05-12T14:39:11.310Z</time>
      </trkpt>
      <trkpt lat="43.74988" lon="6.10827">
        <ele>407.3</ele>
        <time>2022-05-12T14:39:32.547Z</time>
      </trkpt>
      <trkpt lat="43.75001" lon="6.10832">
        <ele>408</ele>
        <time>2022-05-12T14:40:01.211Z</time>
      </trkpt>
      <trkpt lat="43.75009" lon="6.10846">
        <ele>410.3</ele>
        <time>2022-05-12T14:41:00.897Z</time>
      </trkpt>
      <trkpt lat="43.75016" lon="6.10859">
        <ele>411.4</ele>
        <time>2022-05-12T14:41:35.402Z</time>
      </trkpt>
      <trkpt lat="43.75026" lon="6.10873">
        <ele>412.4</ele>
        <time>2022-05-12T14:42:09.827Z</time>
      </trkpt>
      <trkpt lat="43.75036" lon="6.10882">
        <ele>414</ele>
        <time>2022-05-12T14:43:05.036Z</time>
      </trkpt>
      <trkpt lat="43.75049" lon="6.10888">
        <ele>414.9</ele>
        <time>2022-05-12T14:43:37.081Z</time>
      </trkpt>
      <trkpt lat="43.7506" lon="6.10897">
        <ele>415.8</ele>
        <time>2022-05-12T14:44:08.038Z</time>
      </trkpt>
      <trkpt lat="43.75062" lon="6.10908">
        <ele>416.5</ele>
        <time>2022-05-12T14:44:30.429Z</time>
      </trkpt>
      <trkpt lat="43.75063" lon="6.10921">
        <ele>417.3</ele>
        <time>2022-05-12T14:44:56.079Z</time>
      </trkpt>
      <trkpt lat="43.75068" lon="6.1093">
        <ele>418.6</ele>
        <time>2022-05-12T14:45:34.041Z</time>
      </trkpt>
      <trkpt lat="43.75076" lon="6.1094">
        <ele>419.2</ele>
        <time>2022-05-12T14:45:57.530Z</time>
      </trkpt>
      <trkpt lat="43.75083" lon="6.1095">
        <ele>418.8</ele>
        <time>2022-05-12T14:46:00.292Z</time>
      </trkpt>
      <trkpt lat="43.75089" lon="6.1095">
        <ele>419.2</ele>
        <time>2022-05-12T14:46:14.425Z</time>
      </trkpt>
      <trkpt lat="43.75099" lon="6.10961">
        <ele>419.2</ele>
        <time>2022-05-12T14:46:29.753Z</time>
      </trkpt>
      <trkpt lat="43.75104" lon="6.10968">
        <ele>419</ele>
        <time>2022-05-12T14:46:31.948Z</time>
      </trkpt>
      <trkpt lat="43.75106" lon="6.10984">
        <ele>419.5</ele>
        <time>2022-05-12T14:46:55.041Z</time>
      </trkpt>
      <trkpt lat="43.7511" lon="6.10999">
        <ele>420</ele>
        <time>2022-05-12T14:47:18.008Z</time>
      </trkpt>
      <trkpt lat="43.75103" lon="6.11009">
        <ele>422</ele>
        <time>2022-05-12T14:48:04.567Z</time>
      </trkpt>
      <trkpt lat="43.75096" lon="6.11019">
        <ele>423.8</ele>
        <time>2022-05-12T14:48:51.126Z</time>
      </trkpt>
      <trkpt lat="43.75089" lon="6.11027">
        <ele>425</ele>
        <time>2022-05-12T14:49:32.405Z</time>
      </trkpt>
      <trkpt lat="43.75082" lon="6.11036">
        <ele>426.2</ele>
        <time>2022-05-12T14:50:12.132Z</time>
      </trkpt>
      <trkpt lat="43.75084" lon="6.11049">
        <ele>428</ele>
        <time>2022-05-12T14:50:56.573Z</time>
      </trkpt>
      <trkpt lat="43.75094" lon="6.11052">
        <ele>428.5</ele>
        <time>2022-05-12T14:51:17.885Z</time>
      </trkpt>
      <trkpt lat="43.75105" lon="6.11057">
        <ele>429.3</ele>
        <time>2022-05-12T14:51:45.654Z</time>
      </trkpt>
      <trkpt lat="43.75111" lon="6.11071">
        <ele>431.2</ele>
        <time>2022-05-12T14:52:40.082Z</time>
      </trkpt>
      <trkpt lat="43.75111" lon="6.11087">
        <ele>433.6</ele>
        <time>2022-05-12T14:53:33.578Z</time>
      </trkpt>
      <trkpt lat="43.75108" lon="6.11102">
        <ele>435.8</ele>
        <time>2022-05-12T14:54:25.618Z</time>
      </trkpt>
      <trkpt lat="43.751" lon="6.11116">
        <ele>437.9</ele>
        <time>2022-05-12T14:55:25.303Z</time>
      </trkpt>
      <trkpt lat="43.75093" lon="6.11124">
        <ele>439.1</ele>
        <time>2022-05-12T14:56:06.582Z</time>
      </trkpt>
      <trkpt lat="43.75085" lon="6.1113">
        <ele>440</ele>
        <time>2022-05-12T14:56:34.679Z</time>
      </trkpt>
      <trkpt lat="43.75077" lon="6.11137">
        <ele>440.8</ele>
        <time>2022-05-12T14:57:00.345Z</time>
      </trkpt>
      <trkpt lat="43.75071" lon="6.11144">
        <ele>441.6</ele>
        <time>2022-05-12T14:57:25.307Z</time>
      </trkpt>
      <trkpt lat="43.75062" lon="6.11148">
        <ele>442.3</ele>
        <time>2022-05-12T14:57:48.852Z</time>
      </trkpt>
      <trkpt lat="43.75053" lon="6.11153">
        <ele>443.1</ele>
        <time>2022-05-12T14:58:14.705Z</time>
      </trkpt>
      <trkpt lat="43.75043" lon="6.11161">
        <ele>444.2</ele>
        <time>2022-05-12T14:58:49.150Z</time>
      </trkpt>
      <trkpt lat="43.75032" lon="6.11164">
        <ele>444.6</ele>
        <time>2022-05-12T14:59:09.136Z</time>
      </trkpt>
      <trkpt lat="43.75023" lon="6.11171">
        <ele>446.2</ele>
        <time>2022-05-12T14:59:56.919Z</time>
      </trkpt>
      <trkpt lat="43.75015" lon="6.11178">
        <ele>448.1</ele>
        <time>2022-05-12T15:00:40.725Z</time>
      </trkpt>
      <trkpt lat="43.75009" lon="6.11186">
        <ele>449.6</ele>
        <time>2022-05-12T15:01:19.283Z</time>
      </trkpt>
      <trkpt lat="43.75006" lon="6.112">
        <ele>451</ele>
        <time>2022-05-12T15:02:07.610Z</time>
      </trkpt>
      <trkpt lat="43.75005" lon="6.11213">
        <ele>452.1</ele>
        <time>2022-05-12T15:02:42.719Z</time>
      </trkpt>
      <trkpt lat="43.75001" lon="6.11221">
        <ele>452.9</ele>
        <time>2022-05-12T15:03:08.067Z</time>
      </trkpt>
      <trkpt lat="43.74994" lon="6.11231">
        <ele>454.4</ele>
        <time>2022-05-12T15:03:54.626Z</time>
      </trkpt>
      <trkpt lat="43.74988" lon="6.11239">
        <ele>455.7</ele>
        <time>2022-05-12T15:04:33.185Z</time>
      </trkpt>
      <trkpt lat="43.74981" lon="6.11248">
        <ele>456.9</ele>
        <time>2022-05-12T15:05:12.912Z</time>
      </trkpt>
      <trkpt lat="43.74974" lon="6.11257">
        <ele>458.1</ele>
        <time>2022-05-12T15:05:52.639Z</time>
      </trkpt>
      <trkpt lat="43.74966" lon="6.11264">
        <ele>459.3</ele>
        <time>2022-05-12T15:06:32.610Z</time>
      </trkpt>
      <trkpt lat="43.74959" lon="6.11271">
        <ele>460.3</ele>
        <time>2022-05-12T15:07:04.463Z</time>
      </trkpt>
      <trkpt lat="43.74952" lon="6.11278">
        <ele>461.2</ele>
        <time>2022-05-12T15:07:32.568Z</time>
      </trkpt>
      <trkpt lat="43.74942" lon="6.11284">
        <ele>462.5</ele>
        <time>2022-05-12T15:08:14.447Z</time>
      </trkpt>
      <trkpt lat="43.74933" lon="6.11287">
        <ele>463.4</ele>
        <time>2022-05-12T15:08:42.574Z</time>
      </trkpt>
      <trkpt lat="43.74924" lon="6.11291">
        <ele>464.3</ele>
        <time>2022-05-12T15:09:10.758Z</time>
      </trkpt>
      <trkpt lat="43.74916" lon="6.11295">
        <ele>465</ele>
        <time>2022-05-12T15:09:33.396Z</time>
      </trkpt>
      <trkpt lat="43.74907" lon="6.11301">
        <ele>465.1</ele>
        <time>2022-05-12T15:09:46.594Z</time>
      </trkpt>
      <trkpt lat="43.749" lon="6.11309">
        <ele>465.1</ele>
        <time>2022-05-12T15:09:57.487Z</time>
      </trkpt>
      <trkpt lat="43.74896" lon="6.1132">
        <ele>465.5</ele>
        <time>2022-05-12T15:10:15.557Z</time>
      </trkpt>
      <trkpt lat="43.74896" lon="6.11334">
        <ele>466</ele>
        <time>2022-05-12T15:10:36.700Z</time>
      </trkpt>
      <trkpt lat="43.74896" lon="6.11347">
        <ele>466</ele>
        <time>2022-05-12T15:10:47.970Z</time>
      </trkpt>
      <trkpt lat="43.74896" lon="6.11361">
        <ele>466</ele>
        <time>2022-05-12T15:11:00.106Z</time>
      </trkpt>
      <trkpt lat="43.74897" lon="6.11375">
        <ele>466.1</ele>
        <time>2022-05-12T15:11:13.510Z</time>
      </trkpt>
      <trkpt lat="43.74896" lon="6.11389">
        <ele>466.2</ele>
        <time>2022-05-12T15:11:26.913Z</time>
      </trkpt>
      <trkpt lat="43.74897" lon="6.11401">
        <ele>466.3</ele>
        <time>2022-05-12T15:11:38.613Z</time>
      </trkpt>
      <trkpt lat="43.74895" lon="6.11417">
        <ele>466.2</ele>
        <time>2022-05-12T15:11:43.197Z</time>
      </trkpt>
      <trkpt lat="43.74896" lon="6.11429">
        <ele>466.4</ele>
        <time>2022-05-12T15:11:56.451Z</time>
      </trkpt>
      <trkpt lat="43.74896" lon="6.11444">
        <ele>466.5</ele>
        <time>2022-05-12T15:12:10.654Z</time>
      </trkpt>
      <trkpt lat="43.74894" lon="6.11458">
        <ele>466.8</ele>
        <time>2022-05-12T15:12:27.522Z</time>
      </trkpt>
      <trkpt lat="43.74894" lon="6.11474">
        <ele>467.3</ele>
        <time>2022-05-12T15:12:50.495Z</time>
      </trkpt>
      <trkpt lat="43.74895" lon="6.11487">
        <ele>468.3</ele>
        <time>2022-05-12T15:13:21.760Z</time>
      </trkpt>
      <trkpt lat="43.74896" lon="6.11501">
        <ele>469.3</ele>
        <time>2022-05-12T15:13:52.987Z</time>
      </trkpt>
      <trkpt lat="43.74895" lon="6.11516">
        <ele>470.1</ele>
        <time>2022-05-12T15:14:19.980Z</time>
      </trkpt>
      <trkpt lat="43.74894" lon="6.1153">
        <ele>470.7</ele>
        <time>2022-05-12T15:14:42.647Z</time>
      </trkpt>
      <trkpt lat="43.74894" lon="6.11541">
        <ele>472.1</ele>
        <time>2022-05-12T15:15:19.427Z</time>
      </trkpt>
      <trkpt lat="43.7489" lon="6.11557">
        <ele>473.3</ele>
        <time>2022-05-12T15:15:56.906Z</time>
      </trkpt>
      <trkpt lat="43.74889" lon="6.11572">
        <ele>474.2</ele>
        <time>2022-05-12T15:16:25.967Z</time>
      </trkpt>
      <trkpt lat="43.74889" lon="6.11586">
        <ele>475.4</ele>
        <time>2022-05-12T15:17:04.540Z</time>
      </trkpt>
      <trkpt lat="43.7489" lon="6.11602">
        <ele>477.2</ele>
        <time>2022-05-12T15:17:58.238Z</time>
      </trkpt>
      <trkpt lat="43.74892" lon="6.11615">
        <ele>478.6</ele>
        <time>2022-05-12T15:18:42.680Z</time>
      </trkpt>
      <trkpt lat="43.74894" lon="6.11628">
        <ele>479.7</ele>
        <time>2022-05-12T15:19:17.600Z</time>
      </trkpt>
      <trkpt lat="43.74895" lon="6.11642">
        <ele>480.8</ele>
        <time>2022-05-12T15:19:52.083Z</time>
      </trkpt>
      <trkpt lat="43.74898" lon="6.11656">
        <ele>481.6</ele>
        <time>2022-05-12T15:20:18.728Z</time>
      </trkpt>
      <trkpt lat="43.74901" lon="6.11669">
        <ele>482.3</ele>
        <time>2022-05-12T15:20:42.716Z</time>
      </trkpt>
      <trkpt lat="43.74906" lon="6.11682">
        <ele>482.7</ele>
        <time>2022-05-12T15:21:02.189Z</time>
      </trkpt>
      <trkpt lat="43.7491" lon="6.11695">
        <ele>483.1</ele>
        <time>2022-05-12T15:21:21.297Z</time>
      </trkpt>
      <trkpt lat="43.74916" lon="6.11706">
        <ele>483.9</ele>
        <time>2022-05-12T15:21:47.375Z</time>
      </trkpt>
      <trkpt lat="43.7492" lon="6.11719">
        <ele>484.3</ele>
        <time>2022-05-12T15:22:06.483Z</time>
      </trkpt>
      <trkpt lat="43.74925" lon="6.11729">
        <ele>484.7</ele>
        <time>2022-05-12T15:22:24.393Z</time>
      </trkpt>
      <trkpt lat="43.74929" lon="6.11741">
        <ele>484.6</ele>
        <time>2022-05-12T15:22:28.028Z</time>
      </trkpt>
      <trkpt lat="43.74934" lon="6.11752">
        <ele>484.8</ele>
        <time>2022-05-12T15:22:42.025Z</time>
      </trkpt>
      <trkpt lat="43.74939" lon="6.11763">
        <ele>485</ele>
        <time>2022-05-12T15:22:56.023Z</time>
      </trkpt>
      <trkpt lat="43.74944" lon="6.11775">
        <ele>485.1</ele>
        <time>2022-05-12T15:23:09.242Z</time>
      </trkpt>
      <trkpt lat="43.74952" lon="6.11784">
        <ele>485.8</ele>
        <time>2022-05-12T15:23:33.747Z</time>
      </trkpt>
      <trkpt lat="43.74958" lon="6.11795">
        <ele>486.4</ele>
        <time>2022-05-12T15:23:56.145Z</time>
      </trkpt>
      <trkpt lat="43.74962" lon="6.11806">
        <ele>486.9</ele>
        <time>2022-05-12T15:24:15.603Z</time>
      </trkpt>
      <trkpt lat="43.74964" lon="6.11819">
        <ele>487.2</ele>
        <time>2022-05-12T15:24:31.745Z</time>
      </trkpt>
      <trkpt lat="43.74968" lon="6.11836">
        <ele>487.6</ele>
        <time>2022-05-12T15:24:53.382Z</time>
      </trkpt>
      <trkpt lat="43.74971" lon="6.11853">
        <ele>488.5</ele>
        <time>2022-05-12T15:25:24.185Z</time>
      </trkpt>
      <trkpt lat="43.74977" lon="6.11867">
        <ele>489.7</ele>
        <time>2022-05-12T15:26:01.629Z</time>
      </trkpt>
      <trkpt lat="43.7498" lon="6.11878">
        <ele>490.3</ele>
        <time>2022-05-12T15:26:22.238Z</time>
      </trkpt>
      <trkpt lat="43.74985" lon="6.11891">
        <ele>491.2</ele>
        <time>2022-05-12T15:26:51.106Z</time>
      </trkpt>
      <trkpt lat="43.7499" lon="6.11905">
        <ele>492.3</ele>
        <time>2022-05-12T15:27:25.476Z</time>
      </trkpt>
      <trkpt lat="43.74993" lon="6.1192">
        <ele>492.6</ele>
        <time>2022-05-12T15:27:43.332Z</time>
      </trkpt>
      <trkpt lat="43.74996" lon="6.11932">
        <ele>492.9</ele>
        <time>2022-05-12T15:27:59.048Z</time>
      </trkpt>
      <trkpt lat="43.74999" lon="6.11948">
        <ele>492.7</ele>
        <time>2022-05-12T15:28:03.246Z</time>
      </trkpt>
      <trkpt lat="43.75005" lon="6.11962">
        <ele>492.6</ele>
        <time>2022-05-12T15:28:07.843Z</time>
      </trkpt>
      <trkpt lat="43.75007" lon="6.11981">
        <ele>491.9</ele>
        <time>2022-05-12T15:28:11.299Z</time>
      </trkpt>
      <trkpt lat="43.75009" lon="6.11994">
        <ele>491.5</ele>
        <time>2022-05-12T15:28:13.888Z</time>
      </trkpt>
      <trkpt lat="43.75012" lon="6.12008">
        <ele>491.3</ele>
        <time>2022-05-12T15:28:17.500Z</time>
      </trkpt>
      <trkpt lat="43.75016" lon="6.1202">
        <ele>491.1</ele>
        <time>2022-05-12T15:28:20.693Z</time>
      </trkpt>
      <trkpt lat="43.75021" lon="6.12033">
        <ele>491.2</ele>
        <time>2022-05-12T15:28:34.663Z</time>
      </trkpt>
      <trkpt lat="43.75022" lon="6.12046">
        <ele>491.7</ele>
        <time>2022-05-12T15:28:54.869Z</time>
      </trkpt>
      <trkpt lat="43.75025" lon="6.1206">
        <ele>492.2</ele>
        <time>2022-05-12T15:29:16.632Z</time>
      </trkpt>
      <trkpt lat="43.75029" lon="6.12073">
        <ele>492.5</ele>
        <time>2022-05-12T15:29:33.394Z</time>
      </trkpt>
      <trkpt lat="43.75033" lon="6.12086">
        <ele>492.8</ele>
        <time>2022-05-12T15:29:50.155Z</time>
      </trkpt>
      <trkpt lat="43.75036" lon="6.12097">
        <ele>493.1</ele>
        <time>2022-05-12T15:30:05.222Z</time>
      </trkpt>
      <trkpt lat="43.75039" lon="6.1211">
        <ele>493.5</ele>
        <time>2022-05-12T15:30:24.050Z</time>
      </trkpt>
      <trkpt lat="43.75042" lon="6.12123">
        <ele>494.1</ele>
        <time>2022-05-12T15:30:46.320Z</time>
      </trkpt>
      <trkpt lat="43.75046" lon="6.12137">
        <ele>494.6</ele>
        <time>2022-05-12T15:31:08.554Z</time>
      </trkpt>
      <trkpt lat="43.75049" lon="6.12149">
        <ele>494.8</ele>
        <time>2022-05-12T15:31:22.309Z</time>
      </trkpt>
      <trkpt lat="43.75051" lon="6.12162">
        <ele>495</ele>
        <time>2022-05-12T15:31:36.547Z</time>
      </trkpt>
      <trkpt lat="43.75059" lon="6.12175">
        <ele>495.1</ele>
        <time>2022-05-12T15:31:52.538Z</time>
      </trkpt>
      <trkpt lat="43.75058" lon="6.12191">
        <ele>495.7</ele>
        <time>2022-05-12T15:32:17.158Z</time>
      </trkpt>
      <trkpt lat="43.7506" lon="6.12205">
        <ele>495</ele>
        <time>2022-05-12T15:32:19.618Z</time>
      </trkpt>
      <trkpt lat="43.75061" lon="6.12218">
        <ele>494.1</ele>
        <time>2022-05-12T15:32:21.871Z</time>
      </trkpt>
      <trkpt lat="43.75061" lon="6.12231">
        <ele>493.5</ele>
        <time>2022-05-12T15:32:23.968Z</time>
      </trkpt>
      <trkpt lat="43.75062" lon="6.12244">
        <ele>493.2</ele>
        <time>2022-05-12T15:32:26.774Z</time>
      </trkpt>
      <trkpt lat="43.75066" lon="6.12258">
        <ele>493.3</ele>
        <time>2022-05-12T15:32:41.025Z</time>
      </trkpt>
      <trkpt lat="43.75066" lon="6.12273">
        <ele>493.8</ele>
        <time>2022-05-12T15:33:03.201Z</time>
      </trkpt>
      <trkpt lat="43.75067" lon="6.12286">
        <ele>494.4</ele>
        <time>2022-05-12T15:33:24.945Z</time>
      </trkpt>
      <trkpt lat="43.75068" lon="6.12299">
        <ele>495.1</ele>
        <time>2022-05-12T15:33:48.481Z</time>
      </trkpt>
      <trkpt lat="43.75068" lon="6.12322">
        <ele>496.6</ele>
        <time>2022-05-12T15:34:35.845Z</time>
      </trkpt>
      <trkpt lat="43.7507" lon="6.12336">
        <ele>497.7</ele>
        <time>2022-05-12T15:35:10.264Z</time>
      </trkpt>
      <trkpt lat="43.75072" lon="6.12352">
        <ele>498.5</ele>
        <time>2022-05-12T15:35:38.209Z</time>
      </trkpt>
      <trkpt lat="43.75072" lon="6.12371">
        <ele>499.4</ele>
        <time>2022-05-12T15:36:10.281Z</time>
      </trkpt>
      <trkpt lat="43.75064" lon="6.12396">
        <ele>500.4</ele>
        <time>2022-05-12T15:36:51.898Z</time>
      </trkpt>
      <trkpt lat="43.75061" lon="6.12409">
        <ele>501.3</ele>
        <time>2022-05-12T15:37:20.256Z</time>
      </trkpt>
      <trkpt lat="43.75057" lon="6.12429">
        <ele>502.8</ele>
        <time>2022-05-12T15:38:07.065Z</time>
      </trkpt>
      <trkpt lat="43.75055" lon="6.12443">
        <ele>503.9</ele>
        <time>2022-05-12T15:38:41.485Z</time>
      </trkpt>
      <trkpt lat="43.75055" lon="6.12448">
        <ele>504.3</ele>
        <time>2022-05-12T15:38:54.074Z</time>
      </trkpt>
      <trkpt lat="43.75058" lon="6.12464">
        <ele>505.3</ele>
        <time>2022-05-12T15:39:26.243Z</time>
      </trkpt>
      <trkpt lat="43.75063" lon="6.12478">
        <ele>506.2</ele>
        <time>2022-05-12T15:39:55.653Z</time>
      </trkpt>
      <trkpt lat="43.75064" lon="6.12483">
        <ele>506.5</ele>
        <time>2022-05-12T15:40:05.445Z</time>
      </trkpt>
      <trkpt lat="43.75066" lon="6.12498">
        <ele>507.4</ele>
        <time>2022-05-12T15:40:34.621Z</time>
      </trkpt>
      <trkpt lat="43.75065" lon="6.12511">
        <ele>508.2</ele>
        <time>2022-05-12T15:41:00.271Z</time>
      </trkpt>
      <trkpt lat="43.75059" lon="6.12525">
        <ele>508.9</ele>
        <time>2022-05-12T15:41:26.588Z</time>
      </trkpt>
      <trkpt lat="43.75052" lon="6.12543">
        <ele>509.8</ele>
        <time>2022-05-12T15:41:59.968Z</time>
      </trkpt>
      <trkpt lat="43.75047" lon="6.12561">
        <ele>511</ele>
        <time>2022-05-12T15:42:38.268Z</time>
      </trkpt>
      <trkpt lat="43.75043" lon="6.12582">
        <ele>512.8</ele>
        <time>2022-05-12T15:43:35.435Z</time>
      </trkpt>
      <trkpt lat="43.75036" lon="6.12603">
        <ele>515</ele>
        <time>2022-05-12T15:44:50.857Z</time>
      </trkpt>
      <trkpt lat="43.7503" lon="6.12621">
        <ele>516.3</ele>
        <time>2022-05-12T15:45:31.862Z</time>
      </trkpt>
      <trkpt lat="43.75025" lon="6.12639">
        <ele>517.2</ele>
        <time>2022-05-12T15:46:04.186Z</time>
      </trkpt>
      <trkpt lat="43.75017" lon="6.12664">
        <ele>519.2</ele>
        <time>2022-05-12T15:47:06.589Z</time>
      </trkpt>
      <trkpt lat="43.75013" lon="6.12676">
        <ele>520.2</ele>
        <time>2022-05-12T15:47:37.827Z</time>
      </trkpt>
      <trkpt lat="43.75012" lon="6.12698">
        <ele>521.9</ele>
        <time>2022-05-12T15:48:31.023Z</time>
      </trkpt>
      <trkpt lat="43.75011" lon="6.12716">
        <ele>523.5</ele>
        <time>2022-05-12T15:49:23.272Z</time>
      </trkpt>
      <trkpt lat="43.7501" lon="6.12736">
        <ele>525</ele>
        <time>2022-05-12T15:50:10.098Z</time>
      </trkpt>
      <trkpt lat="43.7501" lon="6.12755">
        <ele>526.3</ele>
        <time>2022-05-12T15:50:50.833Z</time>
      </trkpt>
      <trkpt lat="43.75005" lon="6.12773">
        <ele>527.2</ele>
        <time>2022-05-12T15:51:23.157Z</time>
      </trkpt>
      <trkpt lat="43.74999" lon="6.12793">
        <ele>528.1</ele>
        <time>2022-05-12T15:51:57.686Z</time>
      </trkpt>
      <trkpt lat="43.74988" lon="6.12806">
        <ele>529</ele>
        <time>2022-05-12T15:52:30.678Z</time>
      </trkpt>
      <trkpt lat="43.74982" lon="6.12814">
        <ele>529.1</ele>
        <time>2022-05-12T15:52:41.909Z</time>
      </trkpt>
      <trkpt lat="43.74969" lon="6.12826">
        <ele>529.3</ele>
        <time>2022-05-12T15:53:12.113Z</time>
      </trkpt>
      <trkpt lat="43.74964" lon="6.1283">
        <ele>529.6</ele>
        <time>2022-05-12T15:53:22.816Z</time>
      </trkpt>
      <trkpt lat="43.74957" lon="6.12834">
        <ele>530.1</ele>
        <time>2022-05-12T15:53:36.281Z</time>
      </trkpt>
      <trkpt lat="43.74947" lon="6.12838">
        <ele>530.4</ele>
        <time>2022-05-12T15:53:56.356Z</time>
      </trkpt>
      <trkpt lat="43.74942" lon="6.12839">
        <ele>530.5</ele>
        <time>2022-05-12T15:54:10.934Z</time>
      </trkpt>
      <trkpt lat="43.74935" lon="6.12841">
        <ele>530.9</ele>
        <time>2022-05-12T15:54:30.614Z</time>
      </trkpt>
      <trkpt lat="43.74926" lon="6.12843">
        <ele>531.3</ele>
        <time>2022-05-12T15:55:08.964Z</time>
      </trkpt>
      <trkpt lat="43.74912" lon="6.12845">
        <ele>532</ele>
        <time>2022-05-12T15:55:47.240Z</time>
      </trkpt>
      <trkpt lat="43.74902" lon="6.12846">
        <ele>532.5</ele>
        <time>2022-05-12T15:56:12.053Z</time>
      </trkpt>
      <trkpt lat="43.74893" lon="6.12845">
        <ele>533.1</ele>
        <time>2022-05-12T15:56:32.020Z</time>
      </trkpt>
      <trkpt lat="43.7488" lon="6.12845">
        <ele>533.3</ele>
        <time>2022-05-12T15:56:37.169Z</time>
      </trkpt>
      <trkpt lat="43.74871" lon="6.12846">
        <ele>533.1</ele>
        <time>2022-05-12T15:56:38.794Z</time>
      </trkpt>
      <trkpt lat="43.74848" lon="6.12847">
        <ele>532.1</ele>
        <time>2022-05-12T15:56:42.468Z</time>
      </trkpt>
      <trkpt lat="43.74826" lon="6.12851">
        <ele>530.7</ele>
        <time>2022-05-12T15:56:47.571Z</time>
      </trkpt>
      <trkpt lat="43.74816" lon="6.12855">
        <ele>530.2</ele>
        <time>2022-05-12T15:56:50.221Z</time>
      </trkpt>
      <trkpt lat="43.74793" lon="6.12863">
        <ele>529.2</ele>
        <time>2022-05-12T15:56:56.586Z</time>
      </trkpt>
      <trkpt lat="43.7478" lon="6.12868">
        <ele>528.6</ele>
        <time>2022-05-12T15:57:00.132Z</time>
      </trkpt>
      <trkpt lat="43.74772" lon="6.12875">
        <ele>528.5</ele>
        <time>2022-05-12T15:57:03.731Z</time>
      </trkpt>
      <trkpt lat="43.74751" lon="6.12887">
        <ele>527.9</ele>
        <time>2022-05-12T15:57:10.878Z</time>
      </trkpt>
      <trkpt lat="43.74743" lon="6.12894">
        <ele>528.1</ele>
        <time>2022-05-12T15:57:24.961Z</time>
      </trkpt>
      <trkpt lat="43.74733" lon="6.12907">
        <ele>528.7</ele>
        <time>2022-05-12T15:57:52.427Z</time>
      </trkpt>
      <trkpt lat="43.74718" lon="6.12924">
        <ele>529.2</ele>
        <time>2022-05-12T15:58:22.886Z</time>
      </trkpt>
      <trkpt lat="43.74696" lon="6.12945">
        <ele>529.2</ele>
        <time>2022-05-12T15:58:54.955Z</time>
      </trkpt>
      <trkpt lat="43.7467" lon="6.12955">
        <ele>529.8</ele>
        <time>2022-05-12T15:59:35.620Z</time>
      </trkpt>
      <trkpt lat="43.74662" lon="6.12961">
        <ele>530</ele>
        <time>2022-05-12T15:59:49.291Z</time>
      </trkpt>
      <trkpt lat="43.74653" lon="6.12961">
        <ele>529.7</ele>
        <time>2022-05-12T15:59:51.923Z</time>
      </trkpt>
      <trkpt lat="43.74639" lon="6.12959">
        <ele>529</ele>
        <time>2022-05-12T15:59:55.453Z</time>
      </trkpt>
      <trkpt lat="43.7463" lon="6.12959">
        <ele>529</ele>
        <time>2022-05-12T16:00:06.253Z</time>
      </trkpt>
      <trkpt lat="43.74617" lon="6.1296">
        <ele>529.1</ele>
        <time>2022-05-12T16:00:23.060Z</time>
      </trkpt>
      <trkpt lat="43.74605" lon="6.12964">
        <ele>529.5</ele>
        <time>2022-05-12T16:00:44.125Z</time>
      </trkpt>
      <trkpt lat="43.74593" lon="6.12967">
        <ele>529.8</ele>
        <time>2022-05-12T16:01:03.015Z</time>
      </trkpt>
      <trkpt lat="43.74582" lon="6.12968">
        <ele>529.9</ele>
        <time>2022-05-12T16:01:17.442Z</time>
      </trkpt>
      <trkpt lat="43.74572" lon="6.12969">
        <ele>529.9</ele>
        <time>2022-05-12T16:01:29.474Z</time>
      </trkpt>
      <trkpt lat="43.74562" lon="6.12966">
        <ele>529.8</ele>
        <time>2022-05-12T16:01:33.406Z</time>
      </trkpt>
      <trkpt lat="43.74552" lon="6.12963">
        <ele>529.7</ele>
        <time>2022-05-12T16:01:37.338Z</time>
      </trkpt>
      <trkpt lat="43.7454" lon="6.12961">
        <ele>529.9</ele>
        <time>2022-05-12T16:01:54.434Z</time>
      </trkpt>
      <trkpt lat="43.7453" lon="6.12961">
        <ele>530.1</ele>
        <time>2022-05-12T16:02:09.126Z</time>
      </trkpt>
      <trkpt lat="43.7452" lon="6.12963">
        <ele>530.4</ele>
        <time>2022-05-12T16:02:25.780Z</time>
      </trkpt>
      <trkpt lat="43.74511" lon="6.12973">
        <ele>531</ele>
        <time>2022-05-12T16:02:50.316Z</time>
      </trkpt>
      <trkpt lat="43.74503" lon="6.1298">
        <ele>531.5</ele>
        <time>2022-05-12T16:03:10.550Z</time>
      </trkpt>
      <trkpt lat="43.74491" lon="6.12982">
        <ele>531.7</ele>
        <time>2022-05-12T16:03:27.646Z</time>
      </trkpt>
      <trkpt lat="43.74482" lon="6.12987">
        <ele>532.1</ele>
        <time>2022-05-12T16:03:46.350Z</time>
      </trkpt>
      <trkpt lat="43.7447" lon="6.12993">
        <ele>532.6</ele>
        <time>2022-05-12T16:04:10.235Z</time>
      </trkpt>
      <trkpt lat="43.7446" lon="6.12999">
        <ele>533.3</ele>
        <time>2022-05-12T16:04:35.455Z</time>
      </trkpt>
      <trkpt lat="43.74452" lon="6.13005">
        <ele>534</ele>
        <time>2022-05-12T16:04:58.638Z</time>
      </trkpt>
      <trkpt lat="43.74443" lon="6.13012">
        <ele>534.5</ele>
        <time>2022-05-12T16:05:20.080Z</time>
      </trkpt>
      <trkpt lat="43.74436" lon="6.1302">
        <ele>535</ele>
        <time>2022-05-12T16:05:39.784Z</time>
      </trkpt>
      <trkpt lat="43.74429" lon="6.13028">
        <ele>535.6</ele>
        <time>2022-05-12T16:06:01.077Z</time>
      </trkpt>
      <trkpt lat="43.74424" lon="6.13039">
        <ele>536.6</ele>
        <time>2022-05-12T16:06:32.361Z</time>
      </trkpt>
      <trkpt lat="43.74414" lon="6.13046">
        <ele>537.4</ele>
        <time>2022-05-12T16:06:59.707Z</time>
      </trkpt>
      <trkpt lat="43.74404" lon="6.13051">
        <ele>538.2</ele>
        <time>2022-05-12T16:07:26.438Z</time>
      </trkpt>
      <trkpt lat="43.74394" lon="6.13056">
        <ele>538.8</ele>
        <time>2022-05-12T16:07:49.730Z</time>
      </trkpt>
      <trkpt lat="43.74383" lon="6.1306">
        <ele>539.6</ele>
        <time>2022-05-12T16:08:17.264Z</time>
      </trkpt>
      <trkpt lat="43.74374" lon="6.13062">
        <ele>540.3</ele>
        <time>2022-05-12T16:08:40.464Z</time>
      </trkpt>
      <trkpt lat="43.74364" lon="6.13065">
        <ele>541.1</ele>
        <time>2022-05-12T16:09:06.797Z</time>
      </trkpt>
      <trkpt lat="43.74355" lon="6.13065">
        <ele>541.8</ele>
        <time>2022-05-12T16:09:29.884Z</time>
      </trkpt>
      <trkpt lat="43.74344" lon="6.13061">
        <ele>542.4</ele>
        <time>2022-05-12T16:09:54.187Z</time>
      </trkpt>
      <trkpt lat="43.74336" lon="6.13054">
        <ele>542.7</ele>
        <time>2022-05-12T16:10:10.192Z</time>
      </trkpt>
      <trkpt lat="43.74324" lon="6.13047">
        <ele>543.1</ele>
        <time>2022-05-12T16:10:31.937Z</time>
      </trkpt>
      <trkpt lat="43.74314" lon="6.13045">
        <ele>543.6</ele>
        <time>2022-05-12T16:10:53.067Z</time>
      </trkpt>
      <trkpt lat="43.74302" lon="6.13047">
        <ele>544.5</ele>
        <time>2022-05-12T16:11:23.269Z</time>
      </trkpt>
      <trkpt lat="43.74288" lon="6.13043">
        <ele>545</ele>
        <time>2022-05-12T16:11:48.511Z</time>
      </trkpt>
      <trkpt lat="43.74279" lon="6.13051">
        <ele>545.8</ele>
        <time>2022-05-12T16:12:15.307Z</time>
      </trkpt>
      <trkpt lat="43.74275" lon="6.13064">
        <ele>546.8</ele>
        <time>2022-05-12T16:12:46.543Z</time>
      </trkpt>
      <trkpt lat="43.7428" lon="6.13076">
        <ele>547.3</ele>
        <time>2022-05-12T16:13:07.537Z</time>
      </trkpt>
      <trkpt lat="43.74283" lon="6.13089">
        <ele>548</ele>
        <time>2022-05-12T16:13:31.526Z</time>
      </trkpt>
      <trkpt lat="43.74285" lon="6.13102">
        <ele>548.7</ele>
        <time>2022-05-12T16:13:55.232Z</time>
      </trkpt>
      <trkpt lat="43.74285" lon="6.13116">
        <ele>549.4</ele>
        <time>2022-05-12T16:14:19.510Z</time>
      </trkpt>
      <trkpt lat="43.74289" lon="6.13131">
        <ele>549.8</ele>
        <time>2022-05-12T16:14:39.812Z</time>
      </trkpt>
      <trkpt lat="43.74294" lon="6.13145">
        <ele>550</ele>
        <time>2022-05-12T16:14:55.976Z</time>
      </trkpt>
      <trkpt lat="43.74298" lon="6.1316">
        <ele>550.3</ele>
        <time>2022-05-12T16:15:14.165Z</time>
      </trkpt>
      <trkpt lat="43.74301" lon="6.13179">
        <ele>550.7</ele>
        <time>2022-05-12T16:15:36.973Z</time>
      </trkpt>
      <trkpt lat="43.74303" lon="6.13194">
        <ele>551.2</ele>
        <time>2022-05-12T16:15:59.416Z</time>
      </trkpt>
      <trkpt lat="43.74305" lon="6.13209">
        <ele>551.5</ele>
        <time>2022-05-12T16:16:17.033Z</time>
      </trkpt>
      <trkpt lat="43.74305" lon="6.13222">
        <ele>552.1</ele>
        <time>2022-05-12T16:16:38.712Z</time>
      </trkpt>
      <trkpt lat="43.74302" lon="6.13235">
        <ele>553.2</ele>
        <time>2022-05-12T16:17:13.389Z</time>
      </trkpt>
      <trkpt lat="43.743" lon="6.13247">
        <ele>554.2</ele>
        <time>2022-05-12T16:17:44.969Z</time>
      </trkpt>
      <trkpt lat="43.74296" lon="6.13259">
        <ele>555.2</ele>
        <time>2022-05-12T16:18:16.206Z</time>
      </trkpt>
      <trkpt lat="43.74294" lon="6.13273">
        <ele>556.2</ele>
        <time>2022-05-12T16:18:47.465Z</time>
      </trkpt>
      <trkpt lat="43.74289" lon="6.13285">
        <ele>556.9</ele>
        <time>2022-05-12T16:19:11.621Z</time>
      </trkpt>
      <trkpt lat="43.74286" lon="6.13296">
        <ele>557.6</ele>
        <time>2022-05-12T16:19:34.250Z</time>
      </trkpt>
      <trkpt lat="43.74282" lon="6.13307">
        <ele>558.1</ele>
        <time>2022-05-12T16:19:53.709Z</time>
      </trkpt>
      <trkpt lat="43.74278" lon="6.1332">
        <ele>559.1</ele>
        <time>2022-05-12T16:20:24.944Z</time>
      </trkpt>
      <trkpt lat="43.74274" lon="6.13334">
        <ele>560.3</ele>
        <time>2022-05-12T16:21:02.685Z</time>
      </trkpt>
      <trkpt lat="43.7427" lon="6.13347">
        <ele>561.4</ele>
        <time>2022-05-12T16:21:37.146Z</time>
      </trkpt>
      <trkpt lat="43.74268" lon="6.1336">
        <ele>562.3</ele>
        <time>2022-05-12T16:22:05.386Z</time>
      </trkpt>
      <trkpt lat="43.74265" lon="6.13372">
        <ele>563.3</ele>
        <time>2022-05-12T16:22:36.769Z</time>
      </trkpt>
      <trkpt lat="43.74259" lon="6.13386">
        <ele>564.4</ele>
        <time>2022-05-12T16:23:11.293Z</time>
      </trkpt>
      <trkpt lat="43.74254" lon="6.13399">
        <ele>565.2</ele>
        <time>2022-05-12T16:23:38.032Z</time>
      </trkpt>
      <trkpt lat="43.74252" lon="6.1341">
        <ele>565.7</ele>
        <time>2022-05-12T16:23:56.565Z</time>
      </trkpt>
      <trkpt lat="43.74253" lon="6.13422">
        <ele>566.1</ele>
        <time>2022-05-12T16:24:14.391Z</time>
      </trkpt>
      <trkpt lat="43.74257" lon="6.13433">
        <ele>566.4</ele>
        <time>2022-05-12T16:24:29.838Z</time>
      </trkpt>
      <trkpt lat="43.74259" lon="6.13447">
        <ele>566.7</ele>
        <time>2022-05-12T16:24:46.707Z</time>
      </trkpt>
      <trkpt lat="43.74258" lon="6.13463">
        <ele>566.7</ele>
        <time>2022-05-12T16:25:00.630Z</time>
      </trkpt>
      <trkpt lat="43.74256" lon="6.13478">
        <ele>566.8</ele>
        <time>2022-05-12T16:25:15.053Z</time>
      </trkpt>
      <trkpt lat="43.74249" lon="6.1349">
        <ele>567.1</ele>
        <time>2022-05-12T16:25:32.801Z</time>
      </trkpt>
      <trkpt lat="43.74241" lon="6.13501">
        <ele>567.6</ele>
        <time>2022-05-12T16:25:55.588Z</time>
      </trkpt>
      <trkpt lat="43.74233" lon="6.13513">
        <ele>568.2</ele>
        <time>2022-05-12T16:26:20.482Z</time>
      </trkpt>
      <trkpt lat="43.74228" lon="6.13525">
        <ele>568.6</ele>
        <time>2022-05-12T16:26:39.428Z</time>
      </trkpt>
      <trkpt lat="43.74226" lon="6.13538">
        <ele>568.7</ele>
        <time>2022-05-12T16:26:52.166Z</time>
      </trkpt>
      <trkpt lat="43.74223" lon="6.13553">
        <ele>569</ele>
        <time>2022-05-12T16:27:10.024Z</time>
      </trkpt>
      <trkpt lat="43.74213" lon="6.13558">
        <ele>570.1</ele>
        <time>2022-05-12T16:27:44.361Z</time>
      </trkpt>
      <trkpt lat="43.742" lon="6.13559">
        <ele>571.5</ele>
        <time>2022-05-12T16:28:28.208Z</time>
      </trkpt>
      <trkpt lat="43.74191" lon="6.13563">
        <ele>572.6</ele>
        <time>2022-05-12T16:29:03.305Z</time>
      </trkpt>
      <trkpt lat="43.74181" lon="6.13566">
        <ele>573.6</ele>
        <time>2022-05-12T16:29:34.546Z</time>
      </trkpt>
      <trkpt lat="43.74172" lon="6.13571">
        <ele>574.5</ele>
        <time>2022-05-12T16:30:02.826Z</time>
      </trkpt>
      <trkpt lat="43.74162" lon="6.13576">
        <ele>575.5</ele>
        <time>2022-05-12T16:30:34.189Z</time>
      </trkpt>
      <trkpt lat="43.74152" lon="6.1358">
        <ele>576.6</ele>
        <time>2022-05-12T16:31:08.574Z</time>
      </trkpt>
      <trkpt lat="43.74141" lon="6.13584">
        <ele>577.8</ele>
        <time>2022-05-12T16:31:46.081Z</time>
      </trkpt>
      <trkpt lat="43.74132" lon="6.13581">
        <ele>578.5</ele>
        <time>2022-05-12T16:32:09.423Z</time>
      </trkpt>
      <trkpt lat="43.74122" lon="6.13577">
        <ele>579.4</ele>
        <time>2022-05-12T16:32:38.121Z</time>
      </trkpt>
      <trkpt lat="43.74109" lon="6.13576">
        <ele>580.3</ele>
        <time>2022-05-12T16:33:09.355Z</time>
      </trkpt>
      <trkpt lat="43.74097" lon="6.13581">
        <ele>580.6</ele>
        <time>2022-05-12T16:33:28.617Z</time>
      </trkpt>
      <trkpt lat="43.74087" lon="6.13588">
        <ele>580.9</ele>
        <time>2022-05-12T16:33:46.434Z</time>
      </trkpt>
      <trkpt lat="43.74077" lon="6.13595">
        <ele>580.8</ele>
        <time>2022-05-12T16:33:50.790Z</time>
      </trkpt>
      <trkpt lat="43.74068" lon="6.136">
        <ele>580.3</ele>
        <time>2022-05-12T16:33:53.184Z</time>
      </trkpt>
      <trkpt lat="43.74058" lon="6.13602">
        <ele>579.8</ele>
        <time>2022-05-12T16:33:55.723Z</time>
      </trkpt>
      <trkpt lat="43.74048" lon="6.13606">
        <ele>578.5</ele>
        <time>2022-05-12T16:33:58.206Z</time>
      </trkpt>
      <trkpt lat="43.74039" lon="6.13606">
        <ele>577.7</ele>
        <time>2022-05-12T16:34:00.354Z</time>
      </trkpt>
      <trkpt lat="43.7403" lon="6.136">
        <ele>577.4</ele>
        <time>2022-05-12T16:34:03.377Z</time>
      </trkpt>
      <trkpt lat="43.74021" lon="6.13592">
        <ele>577.4</ele>
        <time>2022-05-12T16:34:16.212Z</time>
      </trkpt>
      <trkpt lat="43.7401" lon="6.13584">
        <ele>577</ele>
        <time>2022-05-12T16:34:19.889Z</time>
      </trkpt>
      <trkpt lat="43.74003" lon="6.13575">
        <ele>577.5</ele>
        <time>2022-05-12T16:34:40.248Z</time>
      </trkpt>
      <trkpt lat="43.73993" lon="6.13568">
        <ele>577.6</ele>
        <time>2022-05-12T16:34:54.893Z</time>
      </trkpt>
      <trkpt lat="43.73982" lon="6.13563">
        <ele>577.4</ele>
        <time>2022-05-12T16:34:58.938Z</time>
      </trkpt>
      <trkpt lat="43.73973" lon="6.13561">
        <ele>577</ele>
        <time>2022-05-12T16:35:01.346Z</time>
      </trkpt>
      <trkpt lat="43.73962" lon="6.13559">
        <ele>575.9</ele>
        <time>2022-05-12T16:35:03.993Z</time>
      </trkpt>
      <trkpt lat="43.73954" lon="6.13552">
        <ele>575.8</ele>
        <time>2022-05-12T16:35:07.592Z</time>
      </trkpt>
      <trkpt lat="43.73946" lon="6.13544">
        <ele>576</ele>
        <time>2022-05-12T16:35:22.135Z</time>
      </trkpt>
      <trkpt lat="43.7394" lon="6.13534">
        <ele>576.3</ele>
        <time>2022-05-12T16:35:38.067Z</time>
      </trkpt>
      <trkpt lat="43.73935" lon="6.13523">
        <ele>576.9</ele>
        <time>2022-05-12T16:35:59.743Z</time>
      </trkpt>
      <trkpt lat="43.73929" lon="6.13511">
        <ele>577.2</ele>
        <time>2022-05-12T16:36:16.856Z</time>
      </trkpt>
      <trkpt lat="43.73924" lon="6.13499">
        <ele>577.6</ele>
        <time>2022-05-12T16:36:35.802Z</time>
      </trkpt>
      <trkpt lat="43.73919" lon="6.13487">
        <ele>577.9</ele>
        <time>2022-05-12T16:36:52.358Z</time>
      </trkpt>
      <trkpt lat="43.73917" lon="6.13474">
        <ele>578.9</ele>
        <time>2022-05-12T16:37:23.584Z</time>
      </trkpt>
      <trkpt lat="43.73914" lon="6.13462">
        <ele>578.8</ele>
        <time>2022-05-12T16:37:27.057Z</time>
      </trkpt>
      <trkpt lat="43.73912" lon="6.13449">
        <ele>578.7</ele>
        <time>2022-05-12T16:37:30.717Z</time>
      </trkpt>
      <trkpt lat="43.7391" lon="6.13437">
        <ele>578.3</ele>
        <time>2022-05-12T16:37:33.045Z</time>
      </trkpt>
      <trkpt lat="43.73903" lon="6.13431">
        <ele>576.5</ele>
        <time>2022-05-12T16:37:35.009Z</time>
      </trkpt>
      <trkpt lat="43.73895" lon="6.13442">
        <ele>574.5</ele>
        <time>2022-05-12T16:37:37.700Z</time>
      </trkpt>
      <trkpt lat="43.73887" lon="6.13455">
        <ele>572</ele>
        <time>2022-05-12T16:37:40.643Z</time>
      </trkpt>
      <trkpt lat="43.7388" lon="6.13465">
        <ele>569.8</ele>
        <time>2022-05-12T16:37:43.044Z</time>
      </trkpt>
      <trkpt lat="43.73874" lon="6.13477">
        <ele>567.8</ele>
        <time>2022-05-12T16:37:45.559Z</time>
      </trkpt>
      <trkpt lat="43.73868" lon="6.13487">
        <ele>565.7</ele>
        <time>2022-05-12T16:37:47.800Z</time>
      </trkpt>
      <trkpt lat="43.7386" lon="6.13494">
        <ele>563.1</ele>
        <time>2022-05-12T16:37:50.058Z</time>
      </trkpt>
      <trkpt lat="43.73854" lon="6.13502">
        <ele>559.8</ele>
        <time>2022-05-12T16:37:52.046Z</time>
      </trkpt>
      <trkpt lat="43.7385" lon="6.13507">
        <ele>557.3</ele>
        <time>2022-05-12T16:37:53.332Z</time>
      </trkpt>
      <trkpt lat="43.73848" lon="6.1351">
        <ele>555.9</ele>
        <time>2022-05-12T16:37:54.036Z</time>
      </trkpt>
      <trkpt lat="43.73844" lon="6.13511">
        <ele>554.5</ele>
        <time>2022-05-12T16:37:55.005Z</time>
      </trkpt>
      <trkpt lat="43.73838" lon="6.13518">
        <ele>550.9</ele>
        <time>2022-05-12T16:37:56.878Z</time>
      </trkpt>
      <trkpt lat="43.73841" lon="6.13531">
        <ele>550.6</ele>
        <time>2022-05-12T16:37:59.849Z</time>
      </trkpt>
      <trkpt lat="43.73844" lon="6.13544">
        <ele>549.7</ele>
        <time>2022-05-12T16:38:02.202Z</time>
      </trkpt>
      <trkpt lat="43.73848" lon="6.1356">
        <ele>548.6</ele>
        <time>2022-05-12T16:38:05.120Z</time>
      </trkpt>
      <trkpt lat="43.73855" lon="6.13573">
        <ele>549.3</ele>
        <time>2022-05-12T16:38:31.379Z</time>
      </trkpt>
      <trkpt lat="43.73863" lon="6.13586">
        <ele>549.9</ele>
        <time>2022-05-12T16:38:57.037Z</time>
      </trkpt>
      <trkpt lat="43.73867" lon="6.13601">
        <ele>548.5</ele>
        <time>2022-05-12T16:38:59.794Z</time>
      </trkpt>
      <trkpt lat="43.73869" lon="6.13615">
        <ele>546.8</ele>
        <time>2022-05-12T16:39:02.254Z</time>
      </trkpt>
      <trkpt lat="43.73866" lon="6.13617">
        <ele>545.3</ele>
        <time>2022-05-12T16:39:03.048Z</time>
      </trkpt>
      <trkpt lat="43.73862" lon="6.13632">
        <ele>541.4</ele>
        <time>2022-05-12T16:39:05.804Z</time>
      </trkpt>
      <trkpt lat="43.73863" lon="6.13645">
        <ele>539.6</ele>
        <time>2022-05-12T16:39:08.058Z</time>
      </trkpt>
      <trkpt lat="43.73857" lon="6.13649">
        <ele>537.5</ele>
        <time>2022-05-12T16:39:09.647Z</time>
      </trkpt>
      <trkpt lat="43.73848" lon="6.13652">
        <ele>534.2</ele>
        <time>2022-05-12T16:39:11.856Z</time>
      </trkpt>
      <trkpt lat="43.7384" lon="6.13662">
        <ele>530.1</ele>
        <time>2022-05-12T16:39:14.428Z</time>
      </trkpt>
      <trkpt lat="43.7383" lon="6.13665">
        <ele>526.3</ele>
        <time>2022-05-12T16:39:16.869Z</time>
      </trkpt>
      <trkpt lat="43.73827" lon="6.1368">
        <ele>523.5</ele>
        <time>2022-05-12T16:39:19.552Z</time>
      </trkpt>
      <trkpt lat="43.73829" lon="6.13692">
        <ele>522.8</ele>
        <time>2022-05-12T16:39:21.675Z</time>
      </trkpt>
      <trkpt lat="43.73825" lon="6.13707">
        <ele>519.9</ele>
        <time>2022-05-12T16:39:24.432Z</time>
      </trkpt>
      <trkpt lat="43.73827" lon="6.13721">
        <ele>519.1</ele>
        <time>2022-05-12T16:39:26.892Z</time>
      </trkpt>
      <trkpt lat="43.73834" lon="6.13731">
        <ele>519.6</ele>
        <time>2022-05-12T16:39:47.959Z</time>
      </trkpt>
      <trkpt lat="43.73838" lon="6.13743">
        <ele>518.5</ele>
        <time>2022-05-12T16:39:50.238Z</time>
      </trkpt>
      <trkpt lat="43.73847" lon="6.13751">
        <ele>519.6</ele>
        <time>2022-05-12T16:40:24.567Z</time>
      </trkpt>
      <trkpt lat="43.73852" lon="6.13756">
        <ele>520.7</ele>
        <time>2022-05-12T16:40:53.119Z</time>
      </trkpt>
      <trkpt lat="43.7386" lon="6.13763">
        <ele>522.1</ele>
        <time>2022-05-12T16:41:36.928Z</time>
      </trkpt>
      <trkpt lat="43.73862" lon="6.13774">
        <ele>521.6</ele>
        <time>2022-05-12T16:41:38.799Z</time>
      </trkpt>
      <trkpt lat="43.7386" lon="6.13787">
        <ele>520.3</ele>
        <time>2022-05-12T16:41:41.090Z</time>
      </trkpt>
      <trkpt lat="43.73853" lon="6.13788">
        <ele>517.1</ele>
        <time>2022-05-12T16:41:42.769Z</time>
      </trkpt>
      <trkpt lat="43.73849" lon="6.13801">
        <ele>514.8</ele>
        <time>2022-05-12T16:41:45.205Z</time>
      </trkpt>
      <trkpt lat="43.73849" lon="6.13814">
        <ele>513.8</ele>
        <time>2022-05-12T16:41:47.446Z</time>
      </trkpt>
      <trkpt lat="43.73852" lon="6.13826">
        <ele>514.1</ele>
        <time>2022-05-12T16:42:03.163Z</time>
      </trkpt>
      <trkpt lat="43.73855" lon="6.13834">
        <ele>514.3</ele>
        <time>2022-05-12T16:42:14.037Z</time>
      </trkpt>
      <trkpt lat="43.7386" lon="6.13839">
        <ele>515.4</ele>
        <time>2022-05-12T16:42:42.589Z</time>
      </trkpt>
      <trkpt lat="43.73865" lon="6.13852">
        <ele>515.1</ele>
        <time>2022-05-12T16:42:45.872Z</time>
      </trkpt>
      <trkpt lat="43.73868" lon="6.13859">
        <ele>515.1</ele>
        <time>2022-05-12T16:42:52.929Z</time>
      </trkpt>
      <trkpt lat="43.73874" lon="6.13864">
        <ele>516.5</ele>
        <time>2022-05-12T16:43:25.346Z</time>
      </trkpt>
      <trkpt lat="43.7388" lon="6.13872">
        <ele>517.3</ele>
        <time>2022-05-12T16:43:50.375Z</time>
      </trkpt>
      <trkpt lat="43.73884" lon="6.13885">
        <ele>516.7</ele>
        <time>2022-05-12T16:43:52.749Z</time>
      </trkpt>
      <trkpt lat="43.73889" lon="6.13896">
        <ele>516</ele>
        <time>2022-05-12T16:43:54.989Z</time>
      </trkpt>
      <trkpt lat="43.73891" lon="6.13907">
        <ele>514.1</ele>
        <time>2022-05-12T16:43:56.944Z</time>
      </trkpt>
      <trkpt lat="43.73895" lon="6.1392">
        <ele>513.3</ele>
        <time>2022-05-12T16:43:59.380Z</time>
      </trkpt>
      <trkpt lat="43.73897" lon="6.13928">
        <ele>512.7</ele>
        <time>2022-05-12T16:44:00.840Z</time>
      </trkpt>
      <trkpt lat="43.739" lon="6.13934">
        <ele>512.8</ele>
        <time>2022-05-12T16:44:08.496Z</time>
      </trkpt>
      <trkpt lat="43.73904" lon="6.13948">
        <ele>512</ele>
        <time>2022-05-12T16:44:11.091Z</time>
      </trkpt>
      <trkpt lat="43.73909" lon="6.1396">
        <ele>511.6</ele>
        <time>2022-05-12T16:44:13.834Z</time>
      </trkpt>
      <trkpt lat="43.73914" lon="6.13974">
        <ele>510.7</ele>
        <time>2022-05-12T16:44:16.526Z</time>
      </trkpt>
      <trkpt lat="43.73916" lon="6.13987">
        <ele>508.4</ele>
        <time>2022-05-12T16:44:18.817Z</time>
      </trkpt>
      <trkpt lat="43.73916" lon="6.13999">
        <ele>505.9</ele>
        <time>2022-05-12T16:44:20.886Z</time>
      </trkpt>
      <trkpt lat="43.73911" lon="6.14002">
        <ele>503.3</ele>
        <time>2022-05-12T16:44:22.186Z</time>
      </trkpt>
      <trkpt lat="43.73908" lon="6.13997">
        <ele>503.8</ele>
        <time>2022-05-12T16:44:37.828Z</time>
      </trkpt>
      <trkpt lat="43.739" lon="6.13988">
        <ele>502.7</ele>
        <time>2022-05-12T16:44:40.288Z</time>
      </trkpt>
      <trkpt lat="43.73894" lon="6.13978">
        <ele>502.7</ele>
        <time>2022-05-12T16:44:51.558Z</time>
      </trkpt>
      <trkpt lat="43.73889" lon="6.13966">
        <ele>503.1</ele>
        <time>2022-05-12T16:45:10.504Z</time>
      </trkpt>
      <trkpt lat="43.73887" lon="6.13964">
        <ele>502</ele>
        <time>2022-05-12T16:45:11.093Z</time>
      </trkpt>
    </trkseg>
  </trk>
</gpx>